<?xml version="1.0" encoding="UTF-8" standalone="no" ?>
<gpx xmlns="http://www.topografix.com/GPX/1/1" xmlns:xsi="http://www.w3.org/2001/XMLSchema-instance" xsi:schemaLocation="http://www.topografix.com/GPX/1/1 http://www.topografix.com/GPX/1/1/gpx.xsd" version="1.1" creator="VisuGPX - https://www.visugpx.com">
  <metadata>
    <name>Le Puy Ste Réparade - Venelles</name>
    <desc><![CDATA[Boucle de 12 km, dénivelé 300 m entre Le Puy (La Quille) et en direction de Venelles]]></desc>
  </metadata>
  <trk>
    <name><![CDATA[Tracé 28 sept. 2016 09:11:41]]></name>
    <trkseg>
      <trkpt lat="43.64375" lon="5.43348">
        <ele>429</ele>
        <time>2016-09-28T07:11:41Z</time>
      </trkpt>
      <trkpt lat="43.64368" lon="5.43342">
        <ele>438</ele>
        <time>2016-09-28T07:13:25Z</time>
      </trkpt>
      <trkpt lat="43.64363" lon="5.43333">
        <ele>437</ele>
        <time>2016-09-28T07:13:36Z</time>
      </trkpt>
      <trkpt lat="43.64357" lon="5.43323">
        <ele>442</ele>
        <time>2016-09-28T07:14:02Z</time>
      </trkpt>
      <trkpt lat="43.64358" lon="5.43334">
        <ele>448</ele>
        <time>2016-09-28T07:17:01Z</time>
      </trkpt>
      <trkpt lat="43.64364" lon="5.43342">
        <ele>445</ele>
        <time>2016-09-28T07:17:14Z</time>
      </trkpt>
      <trkpt lat="43.64371" lon="5.43351">
        <ele>442</ele>
        <time>2016-09-28T07:17:34Z</time>
      </trkpt>
      <trkpt lat="43.64378" lon="5.43357">
        <ele>439</ele>
        <time>2016-09-28T07:17:54Z</time>
      </trkpt>
      <trkpt lat="43.64385" lon="5.43364">
        <ele>439</ele>
        <time>2016-09-28T07:18:12Z</time>
      </trkpt>
      <trkpt lat="43.64388" lon="5.43375">
        <ele>440</ele>
        <time>2016-09-28T07:18:27Z</time>
      </trkpt>
      <trkpt lat="43.64387" lon="5.43387">
        <ele>441</ele>
        <time>2016-09-28T07:18:38Z</time>
      </trkpt>
      <trkpt lat="43.64386" lon="5.43399">
        <ele>443</ele>
        <time>2016-09-28T07:18:52Z</time>
      </trkpt>
      <trkpt lat="43.64386" lon="5.43411">
        <ele>445</ele>
        <time>2016-09-28T07:19:00Z</time>
      </trkpt>
      <trkpt lat="43.64384" lon="5.43422">
        <ele>445</ele>
        <time>2016-09-28T07:19:11Z</time>
      </trkpt>
      <trkpt lat="43.64382" lon="5.43434">
        <ele>447</ele>
        <time>2016-09-28T07:19:20Z</time>
      </trkpt>
      <trkpt lat="43.6438" lon="5.43446">
        <ele>445</ele>
        <time>2016-09-28T07:19:28Z</time>
      </trkpt>
      <trkpt lat="43.64378" lon="5.43457">
        <ele>444</ele>
        <time>2016-09-28T07:19:37Z</time>
      </trkpt>
      <trkpt lat="43.64378" lon="5.43468">
        <ele>446</ele>
        <time>2016-09-28T07:19:47Z</time>
      </trkpt>
      <trkpt lat="43.64379" lon="5.4348">
        <ele>449</ele>
        <time>2016-09-28T07:19:56Z</time>
      </trkpt>
      <trkpt lat="43.64379" lon="5.43491">
        <ele>447</ele>
        <time>2016-09-28T07:20:01Z</time>
      </trkpt>
      <trkpt lat="43.64382" lon="5.43501">
        <ele>446</ele>
        <time>2016-09-28T07:20:07Z</time>
      </trkpt>
      <trkpt lat="43.64386" lon="5.43512">
        <ele>446</ele>
        <time>2016-09-28T07:20:14Z</time>
      </trkpt>
      <trkpt lat="43.6439" lon="5.43522">
        <ele>445</ele>
        <time>2016-09-28T07:20:20Z</time>
      </trkpt>
      <trkpt lat="43.64393" lon="5.43534">
        <ele>446</ele>
        <time>2016-09-28T07:20:29Z</time>
      </trkpt>
      <trkpt lat="43.64393" lon="5.43545">
        <ele>447</ele>
        <time>2016-09-28T07:20:37Z</time>
      </trkpt>
      <trkpt lat="43.64392" lon="5.43557">
        <ele>447</ele>
        <time>2016-09-28T07:20:45Z</time>
      </trkpt>
      <trkpt lat="43.64394" lon="5.43568">
        <ele>445</ele>
        <time>2016-09-28T07:20:51Z</time>
      </trkpt>
      <trkpt lat="43.64395" lon="5.43579">
        <ele>444</ele>
        <time>2016-09-28T07:21:00Z</time>
      </trkpt>
      <trkpt lat="43.64394" lon="5.43591">
        <ele>443</ele>
        <time>2016-09-28T07:21:10Z</time>
      </trkpt>
      <trkpt lat="43.64395" lon="5.43602">
        <ele>441</ele>
        <time>2016-09-28T07:21:17Z</time>
      </trkpt>
      <trkpt lat="43.64395" lon="5.43612">
        <ele>441</ele>
        <time>2016-09-28T07:21:24Z</time>
      </trkpt>
      <trkpt lat="43.64395" lon="5.43623">
        <ele>440</ele>
        <time>2016-09-28T07:21:31Z</time>
      </trkpt>
      <trkpt lat="43.64396" lon="5.43635">
        <ele>441</ele>
        <time>2016-09-28T07:21:42Z</time>
      </trkpt>
      <trkpt lat="43.64402" lon="5.43643">
        <ele>439</ele>
        <time>2016-09-28T07:21:51Z</time>
      </trkpt>
      <trkpt lat="43.64409" lon="5.43651">
        <ele>439</ele>
        <time>2016-09-28T07:22:04Z</time>
      </trkpt>
      <trkpt lat="43.64417" lon="5.43654">
        <ele>439</ele>
        <time>2016-09-28T07:22:23Z</time>
      </trkpt>
      <trkpt lat="43.64425" lon="5.43655">
        <ele>438</ele>
        <time>2016-09-28T07:22:40Z</time>
      </trkpt>
      <trkpt lat="43.64434" lon="5.43656">
        <ele>439</ele>
        <time>2016-09-28T07:23:01Z</time>
      </trkpt>
      <trkpt lat="43.64442" lon="5.43654">
        <ele>440</ele>
        <time>2016-09-28T07:23:10Z</time>
      </trkpt>
      <trkpt lat="43.64451" lon="5.43656">
        <ele>442</ele>
        <time>2016-09-28T07:23:21Z</time>
      </trkpt>
      <trkpt lat="43.64459" lon="5.43659">
        <ele>442</ele>
        <time>2016-09-28T07:23:38Z</time>
      </trkpt>
      <trkpt lat="43.64467" lon="5.43663">
        <ele>442</ele>
        <time>2016-09-28T07:23:49Z</time>
      </trkpt>
      <trkpt lat="43.64473" lon="5.43669">
        <ele>442</ele>
        <time>2016-09-28T07:23:59Z</time>
      </trkpt>
      <trkpt lat="43.6448" lon="5.43675">
        <ele>441</ele>
        <time>2016-09-28T07:24:06Z</time>
      </trkpt>
      <trkpt lat="43.64488" lon="5.43679">
        <ele>439</ele>
        <time>2016-09-28T07:24:15Z</time>
      </trkpt>
      <trkpt lat="43.64496" lon="5.43684">
        <ele>438</ele>
        <time>2016-09-28T07:24:25Z</time>
      </trkpt>
      <trkpt lat="43.64504" lon="5.4369">
        <ele>436</ele>
        <time>2016-09-28T07:24:37Z</time>
      </trkpt>
      <trkpt lat="43.64511" lon="5.43696">
        <ele>434</ele>
        <time>2016-09-28T07:24:44Z</time>
      </trkpt>
      <trkpt lat="43.64518" lon="5.43701">
        <ele>434</ele>
        <time>2016-09-28T07:24:50Z</time>
      </trkpt>
      <trkpt lat="43.64525" lon="5.43707">
        <ele>435</ele>
        <time>2016-09-28T07:25:00Z</time>
      </trkpt>
      <trkpt lat="43.6453" lon="5.43717">
        <ele>436</ele>
        <time>2016-09-28T07:25:12Z</time>
      </trkpt>
      <trkpt lat="43.64534" lon="5.43728">
        <ele>437</ele>
        <time>2016-09-28T07:25:24Z</time>
      </trkpt>
      <trkpt lat="43.64536" lon="5.43739">
        <ele>437</ele>
        <time>2016-09-28T07:25:36Z</time>
      </trkpt>
      <trkpt lat="43.64533" lon="5.4375">
        <ele>438</ele>
        <time>2016-09-28T07:25:46Z</time>
      </trkpt>
      <trkpt lat="43.64531" lon="5.43762">
        <ele>438</ele>
        <time>2016-09-28T07:25:55Z</time>
      </trkpt>
      <trkpt lat="43.64527" lon="5.43772">
        <ele>437</ele>
        <time>2016-09-28T07:26:05Z</time>
      </trkpt>
      <trkpt lat="43.64523" lon="5.43783">
        <ele>436</ele>
        <time>2016-09-28T07:26:16Z</time>
      </trkpt>
      <trkpt lat="43.64519" lon="5.43793">
        <ele>432</ele>
        <time>2016-09-28T07:26:25Z</time>
      </trkpt>
      <trkpt lat="43.64518" lon="5.43805">
        <ele>432</ele>
        <time>2016-09-28T07:26:35Z</time>
      </trkpt>
      <trkpt lat="43.64516" lon="5.43816">
        <ele>432</ele>
        <time>2016-09-28T07:26:43Z</time>
      </trkpt>
      <trkpt lat="43.64517" lon="5.43828">
        <ele>435</ele>
        <time>2016-09-28T07:26:51Z</time>
      </trkpt>
      <trkpt lat="43.64517" lon="5.4384">
        <ele>435</ele>
        <time>2016-09-28T07:27:02Z</time>
      </trkpt>
      <trkpt lat="43.64523" lon="5.43847">
        <ele>436</ele>
        <time>2016-09-28T07:27:12Z</time>
      </trkpt>
      <trkpt lat="43.6453" lon="5.43854">
        <ele>437</ele>
        <time>2016-09-28T07:27:21Z</time>
      </trkpt>
      <trkpt lat="43.64538" lon="5.43859">
        <ele>437</ele>
        <time>2016-09-28T07:27:29Z</time>
      </trkpt>
      <trkpt lat="43.64544" lon="5.43868">
        <ele>437</ele>
        <time>2016-09-28T07:27:37Z</time>
      </trkpt>
      <trkpt lat="43.64552" lon="5.43874">
        <ele>438</ele>
        <time>2016-09-28T07:27:49Z</time>
      </trkpt>
      <trkpt lat="43.64556" lon="5.43865">
        <ele>443</ele>
        <time>2016-09-28T07:28:12Z</time>
      </trkpt>
      <trkpt lat="43.64558" lon="5.43854">
        <ele>448</ele>
        <time>2016-09-28T07:28:26Z</time>
      </trkpt>
      <trkpt lat="43.64564" lon="5.43845">
        <ele>450</ele>
        <time>2016-09-28T07:28:43Z</time>
      </trkpt>
      <trkpt lat="43.64571" lon="5.43851">
        <ele>450</ele>
        <time>2016-09-28T07:29:07Z</time>
      </trkpt>
      <trkpt lat="43.64576" lon="5.43861">
        <ele>450</ele>
        <time>2016-09-28T07:32:09Z</time>
      </trkpt>
      <trkpt lat="43.64583" lon="5.43868">
        <ele>450</ele>
        <time>2016-09-28T07:32:21Z</time>
      </trkpt>
      <trkpt lat="43.6459" lon="5.4386">
        <ele>452</ele>
        <time>2016-09-28T07:32:32Z</time>
      </trkpt>
      <trkpt lat="43.64586" lon="5.4385">
        <ele>453</ele>
        <time>2016-09-28T07:32:41Z</time>
      </trkpt>
      <trkpt lat="43.64583" lon="5.43839">
        <ele>454</ele>
        <time>2016-09-28T07:32:51Z</time>
      </trkpt>
      <trkpt lat="43.64583" lon="5.43827">
        <ele>454</ele>
        <time>2016-09-28T07:33:02Z</time>
      </trkpt>
      <trkpt lat="43.64591" lon="5.43833">
        <ele>457</ele>
        <time>2016-09-28T07:33:29Z</time>
      </trkpt>
      <trkpt lat="43.64594" lon="5.43844">
        <ele>456</ele>
        <time>2016-09-28T07:33:37Z</time>
      </trkpt>
      <trkpt lat="43.646" lon="5.43852">
        <ele>457</ele>
        <time>2016-09-28T07:33:45Z</time>
      </trkpt>
      <trkpt lat="43.64607" lon="5.43844">
        <ele>461</ele>
        <time>2016-09-28T07:34:05Z</time>
      </trkpt>
      <trkpt lat="43.64606" lon="5.43832">
        <ele>464</ele>
        <time>2016-09-28T07:34:17Z</time>
      </trkpt>
      <trkpt lat="43.64609" lon="5.43821">
        <ele>465</ele>
        <time>2016-09-28T07:34:26Z</time>
      </trkpt>
      <trkpt lat="43.64613" lon="5.4381">
        <ele>465</ele>
        <time>2016-09-28T07:34:35Z</time>
      </trkpt>
      <trkpt lat="43.64618" lon="5.43801">
        <ele>467</ele>
        <time>2016-09-28T07:34:45Z</time>
      </trkpt>
      <trkpt lat="43.64621" lon="5.43791">
        <ele>469</ele>
        <time>2016-09-28T07:34:55Z</time>
      </trkpt>
      <trkpt lat="43.64625" lon="5.4378">
        <ele>470</ele>
        <time>2016-09-28T07:35:05Z</time>
      </trkpt>
      <trkpt lat="43.6463" lon="5.43771">
        <ele>471</ele>
        <time>2016-09-28T07:35:13Z</time>
      </trkpt>
      <trkpt lat="43.64632" lon="5.43759">
        <ele>471</ele>
        <time>2016-09-28T07:35:22Z</time>
      </trkpt>
      <trkpt lat="43.64635" lon="5.43749">
        <ele>472</ele>
        <time>2016-09-28T07:35:30Z</time>
      </trkpt>
      <trkpt lat="43.64637" lon="5.43738">
        <ele>473</ele>
        <time>2016-09-28T07:35:38Z</time>
      </trkpt>
      <trkpt lat="43.64638" lon="5.43726">
        <ele>473</ele>
        <time>2016-09-28T07:35:46Z</time>
      </trkpt>
      <trkpt lat="43.64638" lon="5.43714">
        <ele>473</ele>
        <time>2016-09-28T07:35:54Z</time>
      </trkpt>
      <trkpt lat="43.64639" lon="5.43702">
        <ele>473</ele>
        <time>2016-09-28T07:36:02Z</time>
      </trkpt>
      <trkpt lat="43.6464" lon="5.4369">
        <ele>474</ele>
        <time>2016-09-28T07:36:11Z</time>
      </trkpt>
      <trkpt lat="43.6464" lon="5.43678">
        <ele>475</ele>
        <time>2016-09-28T07:36:20Z</time>
      </trkpt>
      <trkpt lat="43.64642" lon="5.43666">
        <ele>477</ele>
        <time>2016-09-28T07:37:09Z</time>
      </trkpt>
      <trkpt lat="43.64643" lon="5.43655">
        <ele>477</ele>
        <time>2016-09-28T07:37:22Z</time>
      </trkpt>
      <trkpt lat="43.64646" lon="5.43644">
        <ele>478</ele>
        <time>2016-09-28T07:37:32Z</time>
      </trkpt>
      <trkpt lat="43.64649" lon="5.43633">
        <ele>478</ele>
        <time>2016-09-28T07:37:44Z</time>
      </trkpt>
      <trkpt lat="43.64653" lon="5.43622">
        <ele>477</ele>
        <time>2016-09-28T07:38:33Z</time>
      </trkpt>
      <trkpt lat="43.64661" lon="5.43627">
        <ele>479</ele>
        <time>2016-09-28T07:38:54Z</time>
      </trkpt>
      <trkpt lat="43.64665" lon="5.43637">
        <ele>481</ele>
        <time>2016-09-28T07:39:07Z</time>
      </trkpt>
      <trkpt lat="43.64669" lon="5.43648">
        <ele>482</ele>
        <time>2016-09-28T07:39:19Z</time>
      </trkpt>
      <trkpt lat="43.64673" lon="5.43659">
        <ele>482</ele>
        <time>2016-09-28T07:39:29Z</time>
      </trkpt>
      <trkpt lat="43.64677" lon="5.4367">
        <ele>484</ele>
        <time>2016-09-28T07:39:40Z</time>
      </trkpt>
      <trkpt lat="43.64682" lon="5.43679">
        <ele>486</ele>
        <time>2016-09-28T07:39:53Z</time>
      </trkpt>
      <trkpt lat="43.64688" lon="5.43688">
        <ele>488</ele>
        <time>2016-09-28T07:40:04Z</time>
      </trkpt>
      <trkpt lat="43.64695" lon="5.43696">
        <ele>490</ele>
        <time>2016-09-28T07:40:17Z</time>
      </trkpt>
      <trkpt lat="43.64701" lon="5.43703">
        <ele>491</ele>
        <time>2016-09-28T07:40:29Z</time>
      </trkpt>
      <trkpt lat="43.64708" lon="5.43712">
        <ele>494</ele>
        <time>2016-09-28T07:40:42Z</time>
      </trkpt>
      <trkpt lat="43.64714" lon="5.4372">
        <ele>495</ele>
        <time>2016-09-28T07:40:54Z</time>
      </trkpt>
      <trkpt lat="43.64721" lon="5.43726">
        <ele>497</ele>
        <time>2016-09-28T07:41:06Z</time>
      </trkpt>
      <trkpt lat="43.64728" lon="5.43728">
        <ele>498</ele>
        <time>2016-09-28T07:41:15Z</time>
      </trkpt>
      <trkpt lat="43.64736" lon="5.43732">
        <ele>499</ele>
        <time>2016-09-28T07:41:27Z</time>
      </trkpt>
      <trkpt lat="43.64745" lon="5.43733">
        <ele>500</ele>
        <time>2016-09-28T07:41:40Z</time>
      </trkpt>
      <trkpt lat="43.64753" lon="5.4373">
        <ele>501</ele>
        <time>2016-09-28T07:41:50Z</time>
      </trkpt>
      <trkpt lat="43.6476" lon="5.43722">
        <ele>505</ele>
        <time>2016-09-28T07:42:01Z</time>
      </trkpt>
      <trkpt lat="43.64766" lon="5.43714">
        <ele>507</ele>
        <time>2016-09-28T07:42:13Z</time>
      </trkpt>
      <trkpt lat="43.64774" lon="5.43711">
        <ele>508</ele>
        <time>2016-09-28T07:42:24Z</time>
      </trkpt>
      <trkpt lat="43.64782" lon="5.43709">
        <ele>510</ele>
        <time>2016-09-28T07:42:34Z</time>
      </trkpt>
      <trkpt lat="43.64787" lon="5.437">
        <ele>512</ele>
        <time>2016-09-28T07:42:47Z</time>
      </trkpt>
      <trkpt lat="43.64783" lon="5.43689">
        <ele>513</ele>
        <time>2016-09-28T07:43:04Z</time>
      </trkpt>
      <trkpt lat="43.64775" lon="5.43685">
        <ele>515</ele>
        <time>2016-09-28T07:43:19Z</time>
      </trkpt>
      <trkpt lat="43.64776" lon="5.43673">
        <ele>517</ele>
        <time>2016-09-28T07:43:35Z</time>
      </trkpt>
      <trkpt lat="43.64781" lon="5.43663">
        <ele>519</ele>
        <time>2016-09-28T07:43:49Z</time>
      </trkpt>
      <trkpt lat="43.64788" lon="5.43656">
        <ele>522</ele>
        <time>2016-09-28T07:47:51Z</time>
      </trkpt>
      <trkpt lat="43.64797" lon="5.43655">
        <ele>521</ele>
        <time>2016-09-28T07:48:04Z</time>
      </trkpt>
      <trkpt lat="43.64806" lon="5.43656">
        <ele>521</ele>
        <time>2016-09-28T07:48:16Z</time>
      </trkpt>
      <trkpt lat="43.64814" lon="5.43656">
        <ele>520</ele>
        <time>2016-09-28T07:48:28Z</time>
      </trkpt>
      <trkpt lat="43.64823" lon="5.43661">
        <ele>518</ele>
        <time>2016-09-28T07:48:43Z</time>
      </trkpt>
      <trkpt lat="43.64826" lon="5.43672">
        <ele>515</ele>
        <time>2016-09-28T07:49:03Z</time>
      </trkpt>
      <trkpt lat="43.64829" lon="5.43683">
        <ele>515</ele>
        <time>2016-09-28T07:50:50Z</time>
      </trkpt>
      <trkpt lat="43.64829" lon="5.43671">
        <ele>518</ele>
        <time>2016-09-28T07:55:42Z</time>
      </trkpt>
      <trkpt lat="43.64824" lon="5.43661">
        <ele>520</ele>
        <time>2016-09-28T07:55:56Z</time>
      </trkpt>
      <trkpt lat="43.64817" lon="5.43655">
        <ele>521</ele>
        <time>2016-09-28T07:56:07Z</time>
      </trkpt>
      <trkpt lat="43.6481" lon="5.43647">
        <ele>520</ele>
        <time>2016-09-28T07:56:18Z</time>
      </trkpt>
      <trkpt lat="43.64816" lon="5.43638">
        <ele>521</ele>
        <time>2016-09-28T07:56:37Z</time>
      </trkpt>
      <trkpt lat="43.64824" lon="5.43635">
        <ele>522</ele>
        <time>2016-09-28T07:56:49Z</time>
      </trkpt>
      <trkpt lat="43.64832" lon="5.4363">
        <ele>522</ele>
        <time>2016-09-28T07:57:05Z</time>
      </trkpt>
      <trkpt lat="43.64839" lon="5.43625">
        <ele>519</ele>
        <time>2016-09-28T07:57:20Z</time>
      </trkpt>
      <trkpt lat="43.64848" lon="5.43626">
        <ele>518</ele>
        <time>2016-09-28T07:57:31Z</time>
      </trkpt>
      <trkpt lat="43.64856" lon="5.43622">
        <ele>517</ele>
        <time>2016-09-28T07:57:42Z</time>
      </trkpt>
      <trkpt lat="43.64862" lon="5.43613">
        <ele>518</ele>
        <time>2016-09-28T07:57:52Z</time>
      </trkpt>
      <trkpt lat="43.64868" lon="5.43606">
        <ele>515</ele>
        <time>2016-09-28T07:58:02Z</time>
      </trkpt>
      <trkpt lat="43.64875" lon="5.43598">
        <ele>514</ele>
        <time>2016-09-28T07:58:14Z</time>
      </trkpt>
      <trkpt lat="43.64882" lon="5.43592">
        <ele>515</ele>
        <time>2016-09-28T07:58:23Z</time>
      </trkpt>
      <trkpt lat="43.6489" lon="5.43589">
        <ele>513</ele>
        <time>2016-09-28T07:58:32Z</time>
      </trkpt>
      <trkpt lat="43.64898" lon="5.43583">
        <ele>514</ele>
        <time>2016-09-28T07:58:42Z</time>
      </trkpt>
      <trkpt lat="43.64905" lon="5.43578">
        <ele>514</ele>
        <time>2016-09-28T07:58:52Z</time>
      </trkpt>
      <trkpt lat="43.64912" lon="5.43571">
        <ele>516</ele>
        <time>2016-09-28T07:59:01Z</time>
      </trkpt>
      <trkpt lat="43.64918" lon="5.43564">
        <ele>514</ele>
        <time>2016-09-28T07:59:11Z</time>
      </trkpt>
      <trkpt lat="43.64926" lon="5.43558">
        <ele>512</ele>
        <time>2016-09-28T07:59:23Z</time>
      </trkpt>
      <trkpt lat="43.64934" lon="5.43557">
        <ele>512</ele>
        <time>2016-09-28T07:59:34Z</time>
      </trkpt>
      <trkpt lat="43.64943" lon="5.43558">
        <ele>511</ele>
        <time>2016-09-28T07:59:44Z</time>
      </trkpt>
      <trkpt lat="43.6495" lon="5.43551">
        <ele>512</ele>
        <time>2016-09-28T07:59:52Z</time>
      </trkpt>
      <trkpt lat="43.64956" lon="5.43542">
        <ele>513</ele>
        <time>2016-09-28T07:59:59Z</time>
      </trkpt>
      <trkpt lat="43.6496" lon="5.43533">
        <ele>512</ele>
        <time>2016-09-28T08:00:08Z</time>
      </trkpt>
      <trkpt lat="43.64964" lon="5.43523">
        <ele>513</ele>
        <time>2016-09-28T08:00:27Z</time>
      </trkpt>
      <trkpt lat="43.64956" lon="5.43515">
        <ele>502</ele>
        <time>2016-09-28T08:01:08Z</time>
      </trkpt>
      <trkpt lat="43.64949" lon="5.43508">
        <ele>495</ele>
        <time>2016-09-28T08:01:45Z</time>
      </trkpt>
      <trkpt lat="43.64952" lon="5.43497">
        <ele>493</ele>
        <time>2016-09-28T08:02:05Z</time>
      </trkpt>
      <trkpt lat="43.64957" lon="5.43487">
        <ele>491</ele>
        <time>2016-09-28T08:02:21Z</time>
      </trkpt>
      <trkpt lat="43.64964" lon="5.4348">
        <ele>488</ele>
        <time>2016-09-28T08:03:26Z</time>
      </trkpt>
      <trkpt lat="43.64957" lon="5.43487">
        <ele>489</ele>
        <time>2016-09-28T08:06:25Z</time>
      </trkpt>
      <trkpt lat="43.64966" lon="5.43487">
        <ele>495</ele>
        <time>2016-09-28T08:07:07Z</time>
      </trkpt>
      <trkpt lat="43.64973" lon="5.4348">
        <ele>496</ele>
        <time>2016-09-28T08:07:24Z</time>
      </trkpt>
      <trkpt lat="43.64981" lon="5.43481">
        <ele>491</ele>
        <time>2016-09-28T08:07:56Z</time>
      </trkpt>
      <trkpt lat="43.64989" lon="5.43477">
        <ele>492</ele>
        <time>2016-09-28T08:08:19Z</time>
      </trkpt>
      <trkpt lat="43.64997" lon="5.43475">
        <ele>488</ele>
        <time>2016-09-28T08:08:34Z</time>
      </trkpt>
      <trkpt lat="43.65006" lon="5.43474">
        <ele>488</ele>
        <time>2016-09-28T08:08:44Z</time>
      </trkpt>
      <trkpt lat="43.65013" lon="5.43466">
        <ele>486</ele>
        <time>2016-09-28T08:09:21Z</time>
      </trkpt>
      <trkpt lat="43.65009" lon="5.43455">
        <ele>489</ele>
        <time>2016-09-28T08:09:44Z</time>
      </trkpt>
      <trkpt lat="43.65002" lon="5.43451">
        <ele>486</ele>
        <time>2016-09-28T08:09:58Z</time>
      </trkpt>
      <trkpt lat="43.64994" lon="5.43449">
        <ele>482</ele>
        <time>2016-09-28T08:10:13Z</time>
      </trkpt>
      <trkpt lat="43.64986" lon="5.43449">
        <ele>478</ele>
        <time>2016-09-28T08:10:31Z</time>
      </trkpt>
      <trkpt lat="43.64977" lon="5.43452">
        <ele>476</ele>
        <time>2016-09-28T08:10:46Z</time>
      </trkpt>
      <trkpt lat="43.64968" lon="5.43452">
        <ele>477</ele>
        <time>2016-09-28T08:11:00Z</time>
      </trkpt>
      <trkpt lat="43.64961" lon="5.43459">
        <ele>475</ele>
        <time>2016-09-28T08:11:13Z</time>
      </trkpt>
      <trkpt lat="43.64953" lon="5.43454">
        <ele>478</ele>
        <time>2016-09-28T08:11:27Z</time>
      </trkpt>
      <trkpt lat="43.64944" lon="5.43453">
        <ele>477</ele>
        <time>2016-09-28T08:11:41Z</time>
      </trkpt>
      <trkpt lat="43.64936" lon="5.43455">
        <ele>481</ele>
        <time>2016-09-28T08:12:01Z</time>
      </trkpt>
      <trkpt lat="43.6493" lon="5.43463">
        <ele>479</ele>
        <time>2016-09-28T08:12:12Z</time>
      </trkpt>
      <trkpt lat="43.64922" lon="5.43463">
        <ele>478</ele>
        <time>2016-09-28T08:12:33Z</time>
      </trkpt>
      <trkpt lat="43.64913" lon="5.43465">
        <ele>477</ele>
        <time>2016-09-28T08:12:46Z</time>
      </trkpt>
      <trkpt lat="43.64904" lon="5.43466">
        <ele>478</ele>
        <time>2016-09-28T08:12:57Z</time>
      </trkpt>
      <trkpt lat="43.64896" lon="5.43469">
        <ele>478</ele>
        <time>2016-09-28T08:13:08Z</time>
      </trkpt>
      <trkpt lat="43.64887" lon="5.43472">
        <ele>477</ele>
        <time>2016-09-28T08:13:24Z</time>
      </trkpt>
      <trkpt lat="43.64878" lon="5.43472">
        <ele>476</ele>
        <time>2016-09-28T08:13:34Z</time>
      </trkpt>
      <trkpt lat="43.6487" lon="5.43472">
        <ele>476</ele>
        <time>2016-09-28T08:13:46Z</time>
      </trkpt>
      <trkpt lat="43.64861" lon="5.43474">
        <ele>474</ele>
        <time>2016-09-28T08:14:33Z</time>
      </trkpt>
      <trkpt lat="43.64853" lon="5.43474">
        <ele>474</ele>
        <time>2016-09-28T08:17:14Z</time>
      </trkpt>
      <trkpt lat="43.64844" lon="5.43478">
        <ele>474</ele>
        <time>2016-09-28T08:20:06Z</time>
      </trkpt>
      <trkpt lat="43.64836" lon="5.43479">
        <ele>476</ele>
        <time>2016-09-28T08:20:21Z</time>
      </trkpt>
      <trkpt lat="43.64828" lon="5.43484">
        <ele>475</ele>
        <time>2016-09-28T08:20:32Z</time>
      </trkpt>
      <trkpt lat="43.64819" lon="5.43487">
        <ele>475</ele>
        <time>2016-09-28T08:20:50Z</time>
      </trkpt>
      <trkpt lat="43.64811" lon="5.43489">
        <ele>475</ele>
        <time>2016-09-28T08:21:00Z</time>
      </trkpt>
      <trkpt lat="43.64803" lon="5.43493">
        <ele>475</ele>
        <time>2016-09-28T08:21:10Z</time>
      </trkpt>
      <trkpt lat="43.64795" lon="5.43498">
        <ele>475</ele>
        <time>2016-09-28T08:21:20Z</time>
      </trkpt>
      <trkpt lat="43.64787" lon="5.435">
        <ele>473</ele>
        <time>2016-09-28T08:21:40Z</time>
      </trkpt>
      <trkpt lat="43.64778" lon="5.43503">
        <ele>472</ele>
        <time>2016-09-28T08:21:53Z</time>
      </trkpt>
      <trkpt lat="43.6477" lon="5.43504">
        <ele>472</ele>
        <time>2016-09-28T08:22:02Z</time>
      </trkpt>
      <trkpt lat="43.64761" lon="5.43506">
        <ele>472</ele>
        <time>2016-09-28T08:22:13Z</time>
      </trkpt>
      <trkpt lat="43.64753" lon="5.43509">
        <ele>471</ele>
        <time>2016-09-28T08:22:22Z</time>
      </trkpt>
      <trkpt lat="43.64745" lon="5.43513">
        <ele>471</ele>
        <time>2016-09-28T08:22:32Z</time>
      </trkpt>
      <trkpt lat="43.64738" lon="5.43519">
        <ele>471</ele>
        <time>2016-09-28T08:22:41Z</time>
      </trkpt>
      <trkpt lat="43.64731" lon="5.43524">
        <ele>471</ele>
        <time>2016-09-28T08:22:49Z</time>
      </trkpt>
      <trkpt lat="43.64723" lon="5.43529">
        <ele>469</ele>
        <time>2016-09-28T08:22:57Z</time>
      </trkpt>
      <trkpt lat="43.64715" lon="5.43532">
        <ele>469</ele>
        <time>2016-09-28T08:23:06Z</time>
      </trkpt>
      <trkpt lat="43.64708" lon="5.43538">
        <ele>469</ele>
        <time>2016-09-28T08:23:16Z</time>
      </trkpt>
      <trkpt lat="43.647" lon="5.43544">
        <ele>468</ele>
        <time>2016-09-28T08:23:26Z</time>
      </trkpt>
      <trkpt lat="43.64694" lon="5.43552">
        <ele>468</ele>
        <time>2016-09-28T08:25:22Z</time>
      </trkpt>
      <trkpt lat="43.64686" lon="5.43557">
        <ele>465</ele>
        <time>2016-09-28T08:28:53Z</time>
      </trkpt>
      <trkpt lat="43.64678" lon="5.43561">
        <ele>464</ele>
        <time>2016-09-28T08:29:04Z</time>
      </trkpt>
      <trkpt lat="43.64671" lon="5.43568">
        <ele>464</ele>
        <time>2016-09-28T08:29:16Z</time>
      </trkpt>
      <trkpt lat="43.64663" lon="5.43573">
        <ele>463</ele>
        <time>2016-09-28T08:29:28Z</time>
      </trkpt>
      <trkpt lat="43.64656" lon="5.4358">
        <ele>462</ele>
        <time>2016-09-28T08:29:40Z</time>
      </trkpt>
      <trkpt lat="43.64648" lon="5.43586">
        <ele>462</ele>
        <time>2016-09-28T08:29:52Z</time>
      </trkpt>
      <trkpt lat="43.6464" lon="5.43589">
        <ele>464</ele>
        <time>2016-09-28T08:30:11Z</time>
      </trkpt>
      <trkpt lat="43.64632" lon="5.43584">
        <ele>463</ele>
        <time>2016-09-28T08:30:28Z</time>
      </trkpt>
      <trkpt lat="43.64627" lon="5.43574">
        <ele>462</ele>
        <time>2016-09-28T08:30:42Z</time>
      </trkpt>
      <trkpt lat="43.64622" lon="5.43564">
        <ele>460</ele>
        <time>2016-09-28T08:30:55Z</time>
      </trkpt>
      <trkpt lat="43.64616" lon="5.43555">
        <ele>458</ele>
        <time>2016-09-28T08:31:07Z</time>
      </trkpt>
      <trkpt lat="43.64609" lon="5.43548">
        <ele>456</ele>
        <time>2016-09-28T08:31:19Z</time>
      </trkpt>
      <trkpt lat="43.64605" lon="5.43539">
        <ele>457</ele>
        <time>2016-09-28T08:31:32Z</time>
      </trkpt>
      <trkpt lat="43.64598" lon="5.43531">
        <ele>456</ele>
        <time>2016-09-28T08:31:43Z</time>
      </trkpt>
      <trkpt lat="43.64591" lon="5.43526">
        <ele>453</ele>
        <time>2016-09-28T08:31:53Z</time>
      </trkpt>
      <trkpt lat="43.64583" lon="5.43521">
        <ele>452</ele>
        <time>2016-09-28T08:32:02Z</time>
      </trkpt>
      <trkpt lat="43.64576" lon="5.43514">
        <ele>450</ele>
        <time>2016-09-28T08:32:13Z</time>
      </trkpt>
      <trkpt lat="43.64569" lon="5.43507">
        <ele>449</ele>
        <time>2016-09-28T08:32:24Z</time>
      </trkpt>
      <trkpt lat="43.64563" lon="5.43498">
        <ele>446</ele>
        <time>2016-09-28T08:32:34Z</time>
      </trkpt>
      <trkpt lat="43.64556" lon="5.4349">
        <ele>446</ele>
        <time>2016-09-28T08:32:45Z</time>
      </trkpt>
      <trkpt lat="43.6455" lon="5.43482">
        <ele>445</ele>
        <time>2016-09-28T08:32:55Z</time>
      </trkpt>
      <trkpt lat="43.64542" lon="5.43477">
        <ele>445</ele>
        <time>2016-09-28T08:33:03Z</time>
      </trkpt>
      <trkpt lat="43.64535" lon="5.4347">
        <ele>444</ele>
        <time>2016-09-28T08:33:11Z</time>
      </trkpt>
      <trkpt lat="43.64529" lon="5.43463">
        <ele>443</ele>
        <time>2016-09-28T08:33:21Z</time>
      </trkpt>
      <trkpt lat="43.64522" lon="5.43455">
        <ele>441</ele>
        <time>2016-09-28T08:33:30Z</time>
      </trkpt>
      <trkpt lat="43.64516" lon="5.43447">
        <ele>438</ele>
        <time>2016-09-28T08:33:40Z</time>
      </trkpt>
      <trkpt lat="43.64511" lon="5.43437">
        <ele>439</ele>
        <time>2016-09-28T08:33:51Z</time>
      </trkpt>
      <trkpt lat="43.64503" lon="5.43433">
        <ele>435</ele>
        <time>2016-09-28T08:33:59Z</time>
      </trkpt>
      <trkpt lat="43.64495" lon="5.43428">
        <ele>434</ele>
        <time>2016-09-28T08:34:08Z</time>
      </trkpt>
      <trkpt lat="43.64488" lon="5.43422">
        <ele>433</ele>
        <time>2016-09-28T08:34:18Z</time>
      </trkpt>
      <trkpt lat="43.64481" lon="5.43415">
        <ele>433</ele>
        <time>2016-09-28T08:34:26Z</time>
      </trkpt>
      <trkpt lat="43.64474" lon="5.4341">
        <ele>432</ele>
        <time>2016-09-28T08:34:33Z</time>
      </trkpt>
      <trkpt lat="43.64466" lon="5.43404">
        <ele>432</ele>
        <time>2016-09-28T08:34:42Z</time>
      </trkpt>
      <trkpt lat="43.64459" lon="5.43398">
        <ele>432</ele>
        <time>2016-09-28T08:34:51Z</time>
      </trkpt>
      <trkpt lat="43.64451" lon="5.43393">
        <ele>432</ele>
        <time>2016-09-28T08:35:00Z</time>
      </trkpt>
      <trkpt lat="43.64444" lon="5.43387">
        <ele>432</ele>
        <time>2016-09-28T08:35:08Z</time>
      </trkpt>
      <trkpt lat="43.64436" lon="5.43382">
        <ele>432</ele>
        <time>2016-09-28T08:35:16Z</time>
      </trkpt>
      <trkpt lat="43.64428" lon="5.43377">
        <ele>433</ele>
        <time>2016-09-28T08:35:25Z</time>
      </trkpt>
      <trkpt lat="43.64419" lon="5.43373">
        <ele>433</ele>
        <time>2016-09-28T08:35:33Z</time>
      </trkpt>
      <trkpt lat="43.64411" lon="5.4337">
        <ele>433</ele>
        <time>2016-09-28T08:35:42Z</time>
      </trkpt>
      <trkpt lat="43.64404" lon="5.43366">
        <ele>432</ele>
        <time>2016-09-28T08:35:51Z</time>
      </trkpt>
      <trkpt lat="43.64395" lon="5.43363">
        <ele>434</ele>
        <time>2016-09-28T08:35:59Z</time>
      </trkpt>
      <trkpt lat="43.64387" lon="5.43359">
        <ele>434</ele>
        <time>2016-09-28T08:36:09Z</time>
      </trkpt>
      <trkpt lat="43.64379" lon="5.43354">
        <ele>434</ele>
        <time>2016-09-28T08:36:18Z</time>
      </trkpt>
      <trkpt lat="43.64372" lon="5.43349">
        <ele>435</ele>
        <time>2016-09-28T08:36:27Z</time>
      </trkpt>
      <trkpt lat="43.64364" lon="5.43344">
        <ele>435</ele>
        <time>2016-09-28T08:36:36Z</time>
      </trkpt>
      <trkpt lat="43.64356" lon="5.43341">
        <ele>435</ele>
        <time>2016-09-28T08:36:44Z</time>
      </trkpt>
      <trkpt lat="43.64347" lon="5.43341">
        <ele>434</ele>
        <time>2016-09-28T08:36:52Z</time>
      </trkpt>
      <trkpt lat="43.6434" lon="5.43338">
        <ele>434</ele>
        <time>2016-09-28T08:37:01Z</time>
      </trkpt>
      <trkpt lat="43.64331" lon="5.43338">
        <ele>433</ele>
        <time>2016-09-28T08:37:09Z</time>
      </trkpt>
      <trkpt lat="43.64322" lon="5.43337">
        <ele>434</ele>
        <time>2016-09-28T08:37:17Z</time>
      </trkpt>
      <trkpt lat="43.64314" lon="5.43336">
        <ele>434</ele>
        <time>2016-09-28T08:37:24Z</time>
      </trkpt>
      <trkpt lat="43.64305" lon="5.43335">
        <ele>434</ele>
        <time>2016-09-28T08:37:32Z</time>
      </trkpt>
      <trkpt lat="43.64297" lon="5.43337">
        <ele>435</ele>
        <time>2016-09-28T08:37:40Z</time>
      </trkpt>
      <trkpt lat="43.64289" lon="5.43341">
        <ele>437</ele>
        <time>2016-09-28T08:37:48Z</time>
      </trkpt>
      <trkpt lat="43.6428" lon="5.43342">
        <ele>437</ele>
        <time>2016-09-28T08:37:57Z</time>
      </trkpt>
      <trkpt lat="43.64272" lon="5.43341">
        <ele>436</ele>
        <time>2016-09-28T08:38:08Z</time>
      </trkpt>
      <trkpt lat="43.64263" lon="5.43336">
        <ele>433</ele>
        <time>2016-09-28T08:38:21Z</time>
      </trkpt>
      <trkpt lat="43.64257" lon="5.43329">
        <ele>431</ele>
        <time>2016-09-28T08:38:31Z</time>
      </trkpt>
      <trkpt lat="43.6425" lon="5.43321">
        <ele>431</ele>
        <time>2016-09-28T08:38:41Z</time>
      </trkpt>
      <trkpt lat="43.64242" lon="5.43314">
        <ele>431</ele>
        <time>2016-09-28T08:38:50Z</time>
      </trkpt>
      <trkpt lat="43.64237" lon="5.43306">
        <ele>430</ele>
        <time>2016-09-28T08:38:59Z</time>
      </trkpt>
      <trkpt lat="43.6423" lon="5.43298">
        <ele>433</ele>
        <time>2016-09-28T08:39:09Z</time>
      </trkpt>
      <trkpt lat="43.64224" lon="5.43291">
        <ele>431</ele>
        <time>2016-09-28T08:39:17Z</time>
      </trkpt>
      <trkpt lat="43.64216" lon="5.43288">
        <ele>430</ele>
        <time>2016-09-28T08:39:24Z</time>
      </trkpt>
      <trkpt lat="43.64207" lon="5.43286">
        <ele>429</ele>
        <time>2016-09-28T08:39:33Z</time>
      </trkpt>
      <trkpt lat="43.64199" lon="5.43285">
        <ele>429</ele>
        <time>2016-09-28T08:39:41Z</time>
      </trkpt>
      <trkpt lat="43.6419" lon="5.43285">
        <ele>427</ele>
        <time>2016-09-28T08:39:51Z</time>
      </trkpt>
      <trkpt lat="43.64182" lon="5.43284">
        <ele>428</ele>
        <time>2016-09-28T08:40:02Z</time>
      </trkpt>
      <trkpt lat="43.64174" lon="5.43283">
        <ele>429</ele>
        <time>2016-09-28T08:40:09Z</time>
      </trkpt>
      <trkpt lat="43.64166" lon="5.43284">
        <ele>431</ele>
        <time>2016-09-28T08:40:18Z</time>
      </trkpt>
      <trkpt lat="43.64158" lon="5.43282">
        <ele>432</ele>
        <time>2016-09-28T08:40:24Z</time>
      </trkpt>
      <trkpt lat="43.64149" lon="5.43278">
        <ele>429</ele>
        <time>2016-09-28T08:40:35Z</time>
      </trkpt>
      <trkpt lat="43.64141" lon="5.43276">
        <ele>432</ele>
        <time>2016-09-28T08:40:43Z</time>
      </trkpt>
      <trkpt lat="43.64134" lon="5.43272">
        <ele>434</ele>
        <time>2016-09-28T08:40:52Z</time>
      </trkpt>
      <trkpt lat="43.64127" lon="5.43267">
        <ele>435</ele>
        <time>2016-09-28T08:40:59Z</time>
      </trkpt>
      <trkpt lat="43.64118" lon="5.43262">
        <ele>438</ele>
        <time>2016-09-28T08:41:10Z</time>
      </trkpt>
      <trkpt lat="43.64111" lon="5.43259">
        <ele>437</ele>
        <time>2016-09-28T08:41:18Z</time>
      </trkpt>
      <trkpt lat="43.64102" lon="5.43257">
        <ele>438</ele>
        <time>2016-09-28T08:41:26Z</time>
      </trkpt>
      <trkpt lat="43.64094" lon="5.43256">
        <ele>440</ele>
        <time>2016-09-28T08:41:32Z</time>
      </trkpt>
      <trkpt lat="43.64087" lon="5.43251">
        <ele>442</ele>
        <time>2016-09-28T08:41:42Z</time>
      </trkpt>
      <trkpt lat="43.64079" lon="5.43248">
        <ele>440</ele>
        <time>2016-09-28T08:41:50Z</time>
      </trkpt>
      <trkpt lat="43.64072" lon="5.43242">
        <ele>435</ele>
        <time>2016-09-28T08:41:58Z</time>
      </trkpt>
      <trkpt lat="43.64063" lon="5.43241">
        <ele>435</ele>
        <time>2016-09-28T08:42:08Z</time>
      </trkpt>
      <trkpt lat="43.64055" lon="5.4324">
        <ele>433</ele>
        <time>2016-09-28T08:42:17Z</time>
      </trkpt>
      <trkpt lat="43.64047" lon="5.43238">
        <ele>435</ele>
        <time>2016-09-28T08:42:25Z</time>
      </trkpt>
      <trkpt lat="43.64039" lon="5.43236">
        <ele>434</ele>
        <time>2016-09-28T08:42:30Z</time>
      </trkpt>
      <trkpt lat="43.64031" lon="5.43234">
        <ele>434</ele>
        <time>2016-09-28T08:42:37Z</time>
      </trkpt>
      <trkpt lat="43.64022" lon="5.43234">
        <ele>432</ele>
        <time>2016-09-28T08:42:46Z</time>
      </trkpt>
      <trkpt lat="43.64015" lon="5.43235">
        <ele>433</ele>
        <time>2016-09-28T08:42:54Z</time>
      </trkpt>
      <trkpt lat="43.64007" lon="5.43233">
        <ele>432</ele>
        <time>2016-09-28T08:43:06Z</time>
      </trkpt>
      <trkpt lat="43.63998" lon="5.43232">
        <ele>432</ele>
        <time>2016-09-28T08:43:13Z</time>
      </trkpt>
      <trkpt lat="43.6399" lon="5.43231">
        <ele>434</ele>
        <time>2016-09-28T08:43:19Z</time>
      </trkpt>
      <trkpt lat="43.63982" lon="5.4323">
        <ele>436</ele>
        <time>2016-09-28T08:43:29Z</time>
      </trkpt>
      <trkpt lat="43.63974" lon="5.4323">
        <ele>437</ele>
        <time>2016-09-28T08:43:34Z</time>
      </trkpt>
      <trkpt lat="43.63967" lon="5.43227">
        <ele>436</ele>
        <time>2016-09-28T08:43:39Z</time>
      </trkpt>
      <trkpt lat="43.63958" lon="5.43225">
        <ele>435</ele>
        <time>2016-09-28T08:43:46Z</time>
      </trkpt>
      <trkpt lat="43.6395" lon="5.43222">
        <ele>436</ele>
        <time>2016-09-28T08:43:54Z</time>
      </trkpt>
      <trkpt lat="43.63942" lon="5.43218">
        <ele>436</ele>
        <time>2016-09-28T08:44:01Z</time>
      </trkpt>
      <trkpt lat="43.63934" lon="5.43217">
        <ele>436</ele>
        <time>2016-09-28T08:44:08Z</time>
      </trkpt>
      <trkpt lat="43.63926" lon="5.43216">
        <ele>437</ele>
        <time>2016-09-28T08:44:15Z</time>
      </trkpt>
      <trkpt lat="43.63918" lon="5.43213">
        <ele>439</ele>
        <time>2016-09-28T08:44:26Z</time>
      </trkpt>
      <trkpt lat="43.6391" lon="5.4321">
        <ele>439</ele>
        <time>2016-09-28T08:44:34Z</time>
      </trkpt>
      <trkpt lat="43.63903" lon="5.43208">
        <ele>438</ele>
        <time>2016-09-28T08:44:40Z</time>
      </trkpt>
      <trkpt lat="43.63895" lon="5.43207">
        <ele>438</ele>
        <time>2016-09-28T08:44:49Z</time>
      </trkpt>
      <trkpt lat="43.63886" lon="5.43205">
        <ele>437</ele>
        <time>2016-09-28T08:44:56Z</time>
      </trkpt>
      <trkpt lat="43.63878" lon="5.43204">
        <ele>436</ele>
        <time>2016-09-28T08:45:05Z</time>
      </trkpt>
      <trkpt lat="43.63869" lon="5.43202">
        <ele>438</ele>
        <time>2016-09-28T08:45:13Z</time>
      </trkpt>
      <trkpt lat="43.63861" lon="5.43201">
        <ele>438</ele>
        <time>2016-09-28T08:45:22Z</time>
      </trkpt>
      <trkpt lat="43.63853" lon="5.43198">
        <ele>441</ele>
        <time>2016-09-28T08:45:33Z</time>
      </trkpt>
      <trkpt lat="43.63845" lon="5.432">
        <ele>441</ele>
        <time>2016-09-28T08:45:38Z</time>
      </trkpt>
      <trkpt lat="43.63837" lon="5.43197">
        <ele>443</ele>
        <time>2016-09-28T08:45:49Z</time>
      </trkpt>
      <trkpt lat="43.63828" lon="5.43196">
        <ele>444</ele>
        <time>2016-09-28T08:45:59Z</time>
      </trkpt>
      <trkpt lat="43.63819" lon="5.43193">
        <ele>444</ele>
        <time>2016-09-28T08:46:10Z</time>
      </trkpt>
      <trkpt lat="43.63811" lon="5.43194">
        <ele>448</ele>
        <time>2016-09-28T08:46:21Z</time>
      </trkpt>
      <trkpt lat="43.63802" lon="5.4319">
        <ele>447</ele>
        <time>2016-09-28T08:46:30Z</time>
      </trkpt>
      <trkpt lat="43.63794" lon="5.43188">
        <ele>446</ele>
        <time>2016-09-28T08:46:41Z</time>
      </trkpt>
      <trkpt lat="43.63785" lon="5.43187">
        <ele>445</ele>
        <time>2016-09-28T08:46:48Z</time>
      </trkpt>
      <trkpt lat="43.63777" lon="5.43186">
        <ele>441</ele>
        <time>2016-09-28T08:46:59Z</time>
      </trkpt>
      <trkpt lat="43.63769" lon="5.43184">
        <ele>439</ele>
        <time>2016-09-28T08:47:07Z</time>
      </trkpt>
      <trkpt lat="43.6376" lon="5.4318">
        <ele>442</ele>
        <time>2016-09-28T08:47:21Z</time>
      </trkpt>
      <trkpt lat="43.63752" lon="5.43176">
        <ele>443</ele>
        <time>2016-09-28T08:47:33Z</time>
      </trkpt>
      <trkpt lat="43.63744" lon="5.43175">
        <ele>447</ele>
        <time>2016-09-28T08:47:46Z</time>
      </trkpt>
      <trkpt lat="43.63735" lon="5.43174">
        <ele>448</ele>
        <time>2016-09-28T08:47:55Z</time>
      </trkpt>
      <trkpt lat="43.63727" lon="5.43173">
        <ele>448</ele>
        <time>2016-09-28T08:48:03Z</time>
      </trkpt>
      <trkpt lat="43.63718" lon="5.43173">
        <ele>446</ele>
        <time>2016-09-28T08:48:16Z</time>
      </trkpt>
      <trkpt lat="43.6371" lon="5.43169">
        <ele>450</ele>
        <time>2016-09-28T08:53:16Z</time>
      </trkpt>
      <trkpt lat="43.63701" lon="5.43168">
        <ele>451</ele>
        <time>2016-09-28T08:53:28Z</time>
      </trkpt>
      <trkpt lat="43.63693" lon="5.43169">
        <ele>454</ele>
        <time>2016-09-28T08:53:37Z</time>
      </trkpt>
      <trkpt lat="43.63685" lon="5.4317">
        <ele>455</ele>
        <time>2016-09-28T08:53:45Z</time>
      </trkpt>
      <trkpt lat="43.63677" lon="5.43174">
        <ele>454</ele>
        <time>2016-09-28T08:53:51Z</time>
      </trkpt>
      <trkpt lat="43.6367" lon="5.4318">
        <ele>452</ele>
        <time>2016-09-28T08:54:01Z</time>
      </trkpt>
      <trkpt lat="43.63662" lon="5.43184">
        <ele>454</ele>
        <time>2016-09-28T08:54:09Z</time>
      </trkpt>
      <trkpt lat="43.63653" lon="5.43185">
        <ele>453</ele>
        <time>2016-09-28T08:54:18Z</time>
      </trkpt>
      <trkpt lat="43.63644" lon="5.43185">
        <ele>455</ele>
        <time>2016-09-28T08:54:30Z</time>
      </trkpt>
      <trkpt lat="43.63636" lon="5.43186">
        <ele>458</ele>
        <time>2016-09-28T08:54:39Z</time>
      </trkpt>
      <trkpt lat="43.63628" lon="5.43189">
        <ele>460</ele>
        <time>2016-09-28T08:54:48Z</time>
      </trkpt>
      <trkpt lat="43.6362" lon="5.43192">
        <ele>457</ele>
        <time>2016-09-28T08:54:55Z</time>
      </trkpt>
      <trkpt lat="43.63612" lon="5.43194">
        <ele>458</ele>
        <time>2016-09-28T08:55:02Z</time>
      </trkpt>
      <trkpt lat="43.63605" lon="5.43199">
        <ele>460</ele>
        <time>2016-09-28T08:55:11Z</time>
      </trkpt>
      <trkpt lat="43.63597" lon="5.43203">
        <ele>455</ele>
        <time>2016-09-28T08:55:16Z</time>
      </trkpt>
      <trkpt lat="43.63589" lon="5.43208">
        <ele>454</ele>
        <time>2016-09-28T08:55:25Z</time>
      </trkpt>
      <trkpt lat="43.63581" lon="5.43212">
        <ele>458</ele>
        <time>2016-09-28T08:55:36Z</time>
      </trkpt>
      <trkpt lat="43.63573" lon="5.43218">
        <ele>458</ele>
        <time>2016-09-28T08:55:45Z</time>
      </trkpt>
      <trkpt lat="43.63567" lon="5.43226">
        <ele>458</ele>
        <time>2016-09-28T08:55:53Z</time>
      </trkpt>
      <trkpt lat="43.6356" lon="5.43232">
        <ele>455</ele>
        <time>2016-09-28T08:56:07Z</time>
      </trkpt>
      <trkpt lat="43.63554" lon="5.43242">
        <ele>461</ele>
        <time>2016-09-28T08:56:20Z</time>
      </trkpt>
      <trkpt lat="43.6355" lon="5.4325">
        <ele>460</ele>
        <time>2016-09-28T08:56:32Z</time>
      </trkpt>
      <trkpt lat="43.63542" lon="5.43255">
        <ele>461</ele>
        <time>2016-09-28T08:56:39Z</time>
      </trkpt>
      <trkpt lat="43.63536" lon="5.43264">
        <ele>461</ele>
        <time>2016-09-28T08:56:47Z</time>
      </trkpt>
      <trkpt lat="43.63528" lon="5.43267">
        <ele>461</ele>
        <time>2016-09-28T08:56:55Z</time>
      </trkpt>
      <trkpt lat="43.63523" lon="5.43278">
        <ele>464</ele>
        <time>2016-09-28T08:57:06Z</time>
      </trkpt>
      <trkpt lat="43.63515" lon="5.43283">
        <ele>462</ele>
        <time>2016-09-28T08:57:13Z</time>
      </trkpt>
      <trkpt lat="43.63508" lon="5.4329">
        <ele>469</ele>
        <time>2016-09-28T08:57:23Z</time>
      </trkpt>
      <trkpt lat="43.635" lon="5.43295">
        <ele>470</ele>
        <time>2016-09-28T08:57:32Z</time>
      </trkpt>
      <trkpt lat="43.63493" lon="5.43303">
        <ele>471</ele>
        <time>2016-09-28T08:57:41Z</time>
      </trkpt>
      <trkpt lat="43.63485" lon="5.43307">
        <ele>475</ele>
        <time>2016-09-28T08:57:50Z</time>
      </trkpt>
      <trkpt lat="43.63477" lon="5.4331">
        <ele>477</ele>
        <time>2016-09-28T08:58:01Z</time>
      </trkpt>
      <trkpt lat="43.63469" lon="5.43315">
        <ele>477</ele>
        <time>2016-09-28T08:58:07Z</time>
      </trkpt>
      <trkpt lat="43.63462" lon="5.43322">
        <ele>476</ele>
        <time>2016-09-28T08:58:15Z</time>
      </trkpt>
      <trkpt lat="43.63455" lon="5.43326">
        <ele>469</ele>
        <time>2016-09-28T08:58:23Z</time>
      </trkpt>
      <trkpt lat="43.63447" lon="5.43332">
        <ele>468</ele>
        <time>2016-09-28T08:58:32Z</time>
      </trkpt>
      <trkpt lat="43.63439" lon="5.43337">
        <ele>470</ele>
        <time>2016-09-28T08:58:41Z</time>
      </trkpt>
      <trkpt lat="43.63431" lon="5.43342">
        <ele>470</ele>
        <time>2016-09-28T08:58:47Z</time>
      </trkpt>
      <trkpt lat="43.63422" lon="5.43344">
        <ele>468</ele>
        <time>2016-09-28T08:58:56Z</time>
      </trkpt>
      <trkpt lat="43.63414" lon="5.43348">
        <ele>470</ele>
        <time>2016-09-28T08:59:05Z</time>
      </trkpt>
      <trkpt lat="43.63405" lon="5.4335">
        <ele>470</ele>
        <time>2016-09-28T08:59:15Z</time>
      </trkpt>
      <trkpt lat="43.63398" lon="5.43353">
        <ele>472</ele>
        <time>2016-09-28T08:59:23Z</time>
      </trkpt>
      <trkpt lat="43.63389" lon="5.43355">
        <ele>470</ele>
        <time>2016-09-28T08:59:30Z</time>
      </trkpt>
      <trkpt lat="43.63381" lon="5.43356">
        <ele>470</ele>
        <time>2016-09-28T08:59:36Z</time>
      </trkpt>
      <trkpt lat="43.63373" lon="5.43356">
        <ele>471</ele>
        <time>2016-09-28T08:59:41Z</time>
      </trkpt>
      <trkpt lat="43.63364" lon="5.43358">
        <ele>468</ele>
        <time>2016-09-28T08:59:49Z</time>
      </trkpt>
      <trkpt lat="43.63356" lon="5.43362">
        <ele>467</ele>
        <time>2016-09-28T08:59:58Z</time>
      </trkpt>
      <trkpt lat="43.63348" lon="5.43363">
        <ele>470</ele>
        <time>2016-09-28T09:00:07Z</time>
      </trkpt>
      <trkpt lat="43.63342" lon="5.43364">
        <ele>470</ele>
        <time>2016-09-28T09:00:13Z</time>
      </trkpt>
      <trkpt lat="43.63333" lon="5.43366">
        <ele>465</ele>
        <time>2016-09-28T09:00:19Z</time>
      </trkpt>
      <trkpt lat="43.63325" lon="5.4337">
        <ele>463</ele>
        <time>2016-09-28T09:00:26Z</time>
      </trkpt>
      <trkpt lat="43.63317" lon="5.43372">
        <ele>464</ele>
        <time>2016-09-28T09:00:33Z</time>
      </trkpt>
      <trkpt lat="43.63309" lon="5.43375">
        <ele>465</ele>
        <time>2016-09-28T09:00:40Z</time>
      </trkpt>
      <trkpt lat="43.63301" lon="5.43377">
        <ele>465</ele>
        <time>2016-09-28T09:00:46Z</time>
      </trkpt>
      <trkpt lat="43.63293" lon="5.4338">
        <ele>465</ele>
        <time>2016-09-28T09:00:52Z</time>
      </trkpt>
      <trkpt lat="43.63285" lon="5.43383">
        <ele>464</ele>
        <time>2016-09-28T09:00:58Z</time>
      </trkpt>
      <trkpt lat="43.63277" lon="5.43387">
        <ele>461</ele>
        <time>2016-09-28T09:01:07Z</time>
      </trkpt>
      <trkpt lat="43.6327" lon="5.4339">
        <ele>467</ele>
        <time>2016-09-28T09:01:20Z</time>
      </trkpt>
      <trkpt lat="43.63262" lon="5.4339">
        <ele>467</ele>
        <time>2016-09-28T09:01:26Z</time>
      </trkpt>
      <trkpt lat="43.63253" lon="5.43392">
        <ele>465</ele>
        <time>2016-09-28T09:01:34Z</time>
      </trkpt>
      <trkpt lat="43.63245" lon="5.43395">
        <ele>469</ele>
        <time>2016-09-28T09:01:42Z</time>
      </trkpt>
      <trkpt lat="43.63237" lon="5.43399">
        <ele>467</ele>
        <time>2016-09-28T09:01:49Z</time>
      </trkpt>
      <trkpt lat="43.6323" lon="5.43402">
        <ele>463</ele>
        <time>2016-09-28T09:01:57Z</time>
      </trkpt>
      <trkpt lat="43.63221" lon="5.43405">
        <ele>469</ele>
        <time>2016-09-28T09:02:07Z</time>
      </trkpt>
      <trkpt lat="43.63214" lon="5.43411">
        <ele>471</ele>
        <time>2016-09-28T09:02:15Z</time>
      </trkpt>
      <trkpt lat="43.63207" lon="5.43417">
        <ele>477</ele>
        <time>2016-09-28T09:02:24Z</time>
      </trkpt>
      <trkpt lat="43.63202" lon="5.43423">
        <ele>478</ele>
        <time>2016-09-28T09:02:31Z</time>
      </trkpt>
      <trkpt lat="43.63195" lon="5.43429">
        <ele>480</ele>
        <time>2016-09-28T09:02:37Z</time>
      </trkpt>
      <trkpt lat="43.63188" lon="5.43436">
        <ele>479</ele>
        <time>2016-09-28T09:02:45Z</time>
      </trkpt>
      <trkpt lat="43.63181" lon="5.43441">
        <ele>482</ele>
        <time>2016-09-28T09:02:54Z</time>
      </trkpt>
      <trkpt lat="43.63176" lon="5.43448">
        <ele>481</ele>
        <time>2016-09-28T09:03:00Z</time>
      </trkpt>
      <trkpt lat="43.63169" lon="5.43455">
        <ele>477</ele>
        <time>2016-09-28T09:03:07Z</time>
      </trkpt>
      <trkpt lat="43.63163" lon="5.43464">
        <ele>480</ele>
        <time>2016-09-28T09:03:16Z</time>
      </trkpt>
      <trkpt lat="43.63157" lon="5.43471">
        <ele>477</ele>
        <time>2016-09-28T09:03:22Z</time>
      </trkpt>
      <trkpt lat="43.6315" lon="5.43479">
        <ele>478</ele>
        <time>2016-09-28T09:03:30Z</time>
      </trkpt>
      <trkpt lat="43.63144" lon="5.43487">
        <ele>481</ele>
        <time>2016-09-28T09:03:40Z</time>
      </trkpt>
      <trkpt lat="43.63141" lon="5.43498">
        <ele>481</ele>
        <time>2016-09-28T09:03:48Z</time>
      </trkpt>
      <trkpt lat="43.63136" lon="5.43506">
        <ele>480</ele>
        <time>2016-09-28T09:03:54Z</time>
      </trkpt>
      <trkpt lat="43.63133" lon="5.43517">
        <ele>476</ele>
        <time>2016-09-28T09:04:03Z</time>
      </trkpt>
      <trkpt lat="43.63127" lon="5.43525">
        <ele>473</ele>
        <time>2016-09-28T09:04:32Z</time>
      </trkpt>
      <trkpt lat="43.6312" lon="5.43529">
        <ele>473</ele>
        <time>2016-09-28T09:04:42Z</time>
      </trkpt>
      <trkpt lat="43.63113" lon="5.43535">
        <ele>473</ele>
        <time>2016-09-28T09:04:51Z</time>
      </trkpt>
      <trkpt lat="43.63107" lon="5.4354">
        <ele>477</ele>
        <time>2016-09-28T09:05:00Z</time>
      </trkpt>
      <trkpt lat="43.63099" lon="5.43546">
        <ele>473</ele>
        <time>2016-09-28T09:05:08Z</time>
      </trkpt>
      <trkpt lat="43.63093" lon="5.43553">
        <ele>478</ele>
        <time>2016-09-28T09:05:16Z</time>
      </trkpt>
      <trkpt lat="43.63087" lon="5.43559">
        <ele>473</ele>
        <time>2016-09-28T09:05:22Z</time>
      </trkpt>
      <trkpt lat="43.6308" lon="5.43567">
        <ele>474</ele>
        <time>2016-09-28T09:05:30Z</time>
      </trkpt>
      <trkpt lat="43.63073" lon="5.43574">
        <ele>476</ele>
        <time>2016-09-28T09:05:38Z</time>
      </trkpt>
      <trkpt lat="43.63068" lon="5.43584">
        <ele>475</ele>
        <time>2016-09-28T09:05:47Z</time>
      </trkpt>
      <trkpt lat="43.63063" lon="5.43593">
        <ele>478</ele>
        <time>2016-09-28T09:05:57Z</time>
      </trkpt>
      <trkpt lat="43.6306" lon="5.43605">
        <ele>473</ele>
        <time>2016-09-28T09:06:03Z</time>
      </trkpt>
      <trkpt lat="43.63055" lon="5.43615">
        <ele>472</ele>
        <time>2016-09-28T09:06:10Z</time>
      </trkpt>
      <trkpt lat="43.6305" lon="5.43625">
        <ele>473</ele>
        <time>2016-09-28T09:06:21Z</time>
      </trkpt>
      <trkpt lat="43.63045" lon="5.43633">
        <ele>472</ele>
        <time>2016-09-28T09:06:35Z</time>
      </trkpt>
      <trkpt lat="43.63038" lon="5.43641">
        <ele>476</ele>
        <time>2016-09-28T09:06:43Z</time>
      </trkpt>
      <trkpt lat="43.63031" lon="5.43648">
        <ele>479</ele>
        <time>2016-09-28T09:06:52Z</time>
      </trkpt>
      <trkpt lat="43.63024" lon="5.43654">
        <ele>478</ele>
        <time>2016-09-28T09:07:00Z</time>
      </trkpt>
      <trkpt lat="43.63017" lon="5.43661">
        <ele>479</ele>
        <time>2016-09-28T09:07:10Z</time>
      </trkpt>
      <trkpt lat="43.6301" lon="5.43669">
        <ele>480</ele>
        <time>2016-09-28T09:07:21Z</time>
      </trkpt>
      <trkpt lat="43.63002" lon="5.43674">
        <ele>481</ele>
        <time>2016-09-28T09:07:30Z</time>
      </trkpt>
      <trkpt lat="43.62995" lon="5.43679">
        <ele>478</ele>
        <time>2016-09-28T09:07:39Z</time>
      </trkpt>
      <trkpt lat="43.62987" lon="5.43682">
        <ele>480</ele>
        <time>2016-09-28T09:07:45Z</time>
      </trkpt>
      <trkpt lat="43.62979" lon="5.43688">
        <ele>481</ele>
        <time>2016-09-28T09:07:55Z</time>
      </trkpt>
      <trkpt lat="43.62971" lon="5.4369">
        <ele>480</ele>
        <time>2016-09-28T09:08:04Z</time>
      </trkpt>
      <trkpt lat="43.62963" lon="5.43692">
        <ele>480</ele>
        <time>2016-09-28T09:08:11Z</time>
      </trkpt>
      <trkpt lat="43.62954" lon="5.43695">
        <ele>478</ele>
        <time>2016-09-28T09:08:21Z</time>
      </trkpt>
      <trkpt lat="43.62946" lon="5.43693">
        <ele>476</ele>
        <time>2016-09-28T09:08:30Z</time>
      </trkpt>
      <trkpt lat="43.62937" lon="5.43692">
        <ele>476</ele>
        <time>2016-09-28T09:08:40Z</time>
      </trkpt>
      <trkpt lat="43.62929" lon="5.43692">
        <ele>475</ele>
        <time>2016-09-28T09:08:50Z</time>
      </trkpt>
      <trkpt lat="43.62921" lon="5.43688">
        <ele>476</ele>
        <time>2016-09-28T09:08:58Z</time>
      </trkpt>
      <trkpt lat="43.62912" lon="5.43683">
        <ele>478</ele>
        <time>2016-09-28T09:09:07Z</time>
      </trkpt>
      <trkpt lat="43.62903" lon="5.43681">
        <ele>478</ele>
        <time>2016-09-28T09:09:17Z</time>
      </trkpt>
      <trkpt lat="43.62896" lon="5.43676">
        <ele>480</ele>
        <time>2016-09-28T09:09:27Z</time>
      </trkpt>
      <trkpt lat="43.62889" lon="5.4367">
        <ele>481</ele>
        <time>2016-09-28T09:09:43Z</time>
      </trkpt>
      <trkpt lat="43.62881" lon="5.43664">
        <ele>481</ele>
        <time>2016-09-28T09:09:55Z</time>
      </trkpt>
      <trkpt lat="43.62873" lon="5.4366">
        <ele>481</ele>
        <time>2016-09-28T09:10:08Z</time>
      </trkpt>
      <trkpt lat="43.62866" lon="5.43654">
        <ele>481</ele>
        <time>2016-09-28T09:10:17Z</time>
      </trkpt>
      <trkpt lat="43.62859" lon="5.43647">
        <ele>482</ele>
        <time>2016-09-28T09:10:27Z</time>
      </trkpt>
      <trkpt lat="43.62852" lon="5.43641">
        <ele>485</ele>
        <time>2016-09-28T09:10:38Z</time>
      </trkpt>
      <trkpt lat="43.62845" lon="5.43635">
        <ele>489</ele>
        <time>2016-09-28T09:10:48Z</time>
      </trkpt>
      <trkpt lat="43.62837" lon="5.43628">
        <ele>491</ele>
        <time>2016-09-28T09:11:00Z</time>
      </trkpt>
      <trkpt lat="43.6283" lon="5.43622">
        <ele>493</ele>
        <time>2016-09-28T09:11:13Z</time>
      </trkpt>
      <trkpt lat="43.62822" lon="5.43617">
        <ele>494</ele>
        <time>2016-09-28T09:11:26Z</time>
      </trkpt>
      <trkpt lat="43.62814" lon="5.43612">
        <ele>493</ele>
        <time>2016-09-28T09:11:38Z</time>
      </trkpt>
      <trkpt lat="43.62809" lon="5.43602">
        <ele>496</ele>
        <time>2016-09-28T09:11:49Z</time>
      </trkpt>
      <trkpt lat="43.62802" lon="5.43597">
        <ele>497</ele>
        <time>2016-09-28T09:11:57Z</time>
      </trkpt>
      <trkpt lat="43.62793" lon="5.43595">
        <ele>495</ele>
        <time>2016-09-28T09:12:07Z</time>
      </trkpt>
      <trkpt lat="43.62784" lon="5.43594">
        <ele>497</ele>
        <time>2016-09-28T09:12:20Z</time>
      </trkpt>
      <trkpt lat="43.62776" lon="5.43593">
        <ele>499</ele>
        <time>2016-09-28T09:12:30Z</time>
      </trkpt>
      <trkpt lat="43.62768" lon="5.43594">
        <ele>500</ele>
        <time>2016-09-28T09:12:41Z</time>
      </trkpt>
      <trkpt lat="43.62759" lon="5.43595">
        <ele>501</ele>
        <time>2016-09-28T09:12:49Z</time>
      </trkpt>
      <trkpt lat="43.62751" lon="5.43591">
        <ele>503</ele>
        <time>2016-09-28T09:12:59Z</time>
      </trkpt>
      <trkpt lat="43.62743" lon="5.43586">
        <ele>505</ele>
        <time>2016-09-28T09:13:09Z</time>
      </trkpt>
      <trkpt lat="43.62736" lon="5.43582">
        <ele>506</ele>
        <time>2016-09-28T09:13:17Z</time>
      </trkpt>
      <trkpt lat="43.62728" lon="5.43579">
        <ele>508</ele>
        <time>2016-09-28T09:13:27Z</time>
      </trkpt>
      <trkpt lat="43.62719" lon="5.43577">
        <ele>510</ele>
        <time>2016-09-28T09:13:37Z</time>
      </trkpt>
      <trkpt lat="43.62711" lon="5.43574">
        <ele>510</ele>
        <time>2016-09-28T09:13:47Z</time>
      </trkpt>
      <trkpt lat="43.62703" lon="5.43568">
        <ele>508</ele>
        <time>2016-09-28T09:13:58Z</time>
      </trkpt>
      <trkpt lat="43.62694" lon="5.43566">
        <ele>510</ele>
        <time>2016-09-28T09:14:08Z</time>
      </trkpt>
      <trkpt lat="43.62686" lon="5.43564">
        <ele>511</ele>
        <time>2016-09-28T09:14:16Z</time>
      </trkpt>
      <trkpt lat="43.62677" lon="5.43563">
        <ele>510</ele>
        <time>2016-09-28T09:14:27Z</time>
      </trkpt>
      <trkpt lat="43.62669" lon="5.43562">
        <ele>510</ele>
        <time>2016-09-28T09:14:36Z</time>
      </trkpt>
      <trkpt lat="43.62661" lon="5.43559">
        <ele>512</ele>
        <time>2016-09-28T09:14:46Z</time>
      </trkpt>
      <trkpt lat="43.62654" lon="5.43556">
        <ele>515</ele>
        <time>2016-09-28T09:14:54Z</time>
      </trkpt>
      <trkpt lat="43.62645" lon="5.43554">
        <ele>515</ele>
        <time>2016-09-28T09:15:00Z</time>
      </trkpt>
      <trkpt lat="43.62637" lon="5.43552">
        <ele>520</ele>
        <time>2016-09-28T09:15:13Z</time>
      </trkpt>
      <trkpt lat="43.62629" lon="5.43549">
        <ele>521</ele>
        <time>2016-09-28T09:15:23Z</time>
      </trkpt>
      <trkpt lat="43.6262" lon="5.43548">
        <ele>521</ele>
        <time>2016-09-28T09:15:35Z</time>
      </trkpt>
      <trkpt lat="43.62613" lon="5.43544">
        <ele>524</ele>
        <time>2016-09-28T09:15:45Z</time>
      </trkpt>
      <trkpt lat="43.62604" lon="5.43542">
        <ele>526</ele>
        <time>2016-09-28T09:15:58Z</time>
      </trkpt>
      <trkpt lat="43.62597" lon="5.43539">
        <ele>526</ele>
        <time>2016-09-28T09:16:06Z</time>
      </trkpt>
      <trkpt lat="43.62588" lon="5.43538">
        <ele>524</ele>
        <time>2016-09-28T09:16:11Z</time>
      </trkpt>
      <trkpt lat="43.62582" lon="5.4354">
        <ele>524</ele>
        <time>2016-09-28T09:16:16Z</time>
      </trkpt>
      <trkpt lat="43.62573" lon="5.43541">
        <ele>523</ele>
        <time>2016-09-28T09:16:22Z</time>
      </trkpt>
      <trkpt lat="43.62564" lon="5.43541">
        <ele>524</ele>
        <time>2016-09-28T09:16:30Z</time>
      </trkpt>
      <trkpt lat="43.62556" lon="5.43539">
        <ele>527</ele>
        <time>2016-09-28T09:16:41Z</time>
      </trkpt>
      <trkpt lat="43.62547" lon="5.43539">
        <ele>527</ele>
        <time>2016-09-28T09:16:49Z</time>
      </trkpt>
      <trkpt lat="43.62539" lon="5.43536">
        <ele>529</ele>
        <time>2016-09-28T09:16:59Z</time>
      </trkpt>
      <trkpt lat="43.62531" lon="5.43536">
        <ele>528</ele>
        <time>2016-09-28T09:17:08Z</time>
      </trkpt>
      <trkpt lat="43.62523" lon="5.43534">
        <ele>526</ele>
        <time>2016-09-28T09:17:20Z</time>
      </trkpt>
      <trkpt lat="43.62515" lon="5.43535">
        <ele>527</ele>
        <time>2016-09-28T09:17:29Z</time>
      </trkpt>
      <trkpt lat="43.62508" lon="5.43537">
        <ele>527</ele>
        <time>2016-09-28T09:17:35Z</time>
      </trkpt>
      <trkpt lat="43.625" lon="5.43541">
        <ele>526</ele>
        <time>2016-09-28T09:17:41Z</time>
      </trkpt>
      <trkpt lat="43.62496" lon="5.43552">
        <ele>526</ele>
        <time>2016-09-28T09:17:55Z</time>
      </trkpt>
      <trkpt lat="43.62502" lon="5.43561">
        <ele>525</ele>
        <time>2016-09-28T09:19:02Z</time>
      </trkpt>
      <trkpt lat="43.62509" lon="5.43568">
        <ele>527</ele>
        <time>2016-09-28T09:19:37Z</time>
      </trkpt>
      <trkpt lat="43.62515" lon="5.43577">
        <ele>530</ele>
        <time>2016-09-28T09:19:54Z</time>
      </trkpt>
      <trkpt lat="43.62522" lon="5.43584">
        <ele>534</ele>
        <time>2016-09-28T09:20:11Z</time>
      </trkpt>
      <trkpt lat="43.6253" lon="5.43587">
        <ele>536</ele>
        <time>2016-09-28T09:20:24Z</time>
      </trkpt>
      <trkpt lat="43.62538" lon="5.43592">
        <ele>537</ele>
        <time>2016-09-28T09:20:34Z</time>
      </trkpt>
      <trkpt lat="43.62547" lon="5.43591">
        <ele>536</ele>
        <time>2016-09-28T09:20:45Z</time>
      </trkpt>
      <trkpt lat="43.62556" lon="5.4359">
        <ele>538</ele>
        <time>2016-09-28T09:20:58Z</time>
      </trkpt>
      <trkpt lat="43.62564" lon="5.43596">
        <ele>541</ele>
        <time>2016-09-28T09:21:13Z</time>
      </trkpt>
      <trkpt lat="43.6257" lon="5.43603">
        <ele>541</ele>
        <time>2016-09-28T09:21:29Z</time>
      </trkpt>
      <trkpt lat="43.62578" lon="5.4361">
        <ele>539</ele>
        <time>2016-09-28T09:21:42Z</time>
      </trkpt>
      <trkpt lat="43.62585" lon="5.43617">
        <ele>539</ele>
        <time>2016-09-28T09:22:04Z</time>
      </trkpt>
      <trkpt lat="43.62592" lon="5.43624">
        <ele>542</ele>
        <time>2016-09-28T09:22:18Z</time>
      </trkpt>
      <trkpt lat="43.62597" lon="5.43633">
        <ele>543</ele>
        <time>2016-09-28T09:22:33Z</time>
      </trkpt>
      <trkpt lat="43.62601" lon="5.43644">
        <ele>544</ele>
        <time>2016-09-28T09:22:45Z</time>
      </trkpt>
      <trkpt lat="43.62604" lon="5.43655">
        <ele>546</ele>
        <time>2016-09-28T09:22:55Z</time>
      </trkpt>
      <trkpt lat="43.6261" lon="5.43664">
        <ele>547</ele>
        <time>2016-09-28T09:23:04Z</time>
      </trkpt>
      <trkpt lat="43.62617" lon="5.43673">
        <ele>550</ele>
        <time>2016-09-28T09:23:15Z</time>
      </trkpt>
      <trkpt lat="43.62622" lon="5.43682">
        <ele>554</ele>
        <time>2016-09-28T09:23:30Z</time>
      </trkpt>
      <trkpt lat="43.62626" lon="5.43693">
        <ele>558</ele>
        <time>2016-09-28T09:23:42Z</time>
      </trkpt>
      <trkpt lat="43.62631" lon="5.43702">
        <ele>558</ele>
        <time>2016-09-28T09:23:52Z</time>
      </trkpt>
      <trkpt lat="43.62638" lon="5.4371">
        <ele>561</ele>
        <time>2016-09-28T09:24:02Z</time>
      </trkpt>
      <trkpt lat="43.62643" lon="5.43717">
        <ele>560</ele>
        <time>2016-09-28T09:24:09Z</time>
      </trkpt>
      <trkpt lat="43.62649" lon="5.43723">
        <ele>558</ele>
        <time>2016-09-28T09:24:14Z</time>
      </trkpt>
      <trkpt lat="43.62657" lon="5.43729">
        <ele>557</ele>
        <time>2016-09-28T09:24:20Z</time>
      </trkpt>
      <trkpt lat="43.62663" lon="5.43736">
        <ele>557</ele>
        <time>2016-09-28T09:24:30Z</time>
      </trkpt>
      <trkpt lat="43.62669" lon="5.43743">
        <ele>555</ele>
        <time>2016-09-28T09:24:44Z</time>
      </trkpt>
      <trkpt lat="43.62674" lon="5.43752">
        <ele>556</ele>
        <time>2016-09-28T09:24:51Z</time>
      </trkpt>
      <trkpt lat="43.6268" lon="5.43761">
        <ele>556</ele>
        <time>2016-09-28T09:25:02Z</time>
      </trkpt>
      <trkpt lat="43.62684" lon="5.43771">
        <ele>554</ele>
        <time>2016-09-28T09:25:25Z</time>
      </trkpt>
      <trkpt lat="43.62686" lon="5.43781">
        <ele>557</ele>
        <time>2016-09-28T09:25:46Z</time>
      </trkpt>
      <trkpt lat="43.6269" lon="5.43792">
        <ele>556</ele>
        <time>2016-09-28T09:25:55Z</time>
      </trkpt>
      <trkpt lat="43.62691" lon="5.43804">
        <ele>557</ele>
        <time>2016-09-28T09:26:13Z</time>
      </trkpt>
      <trkpt lat="43.62692" lon="5.43816">
        <ele>555</ele>
        <time>2016-09-28T09:26:24Z</time>
      </trkpt>
      <trkpt lat="43.62691" lon="5.43828">
        <ele>556</ele>
        <time>2016-09-28T09:26:35Z</time>
      </trkpt>
      <trkpt lat="43.62692" lon="5.4384">
        <ele>556</ele>
        <time>2016-09-28T09:26:59Z</time>
      </trkpt>
      <trkpt lat="43.62691" lon="5.43851">
        <ele>559</ele>
        <time>2016-09-28T09:27:07Z</time>
      </trkpt>
      <trkpt lat="43.62691" lon="5.43863">
        <ele>560</ele>
        <time>2016-09-28T09:27:17Z</time>
      </trkpt>
      <trkpt lat="43.62685" lon="5.43871">
        <ele>559</ele>
        <time>2016-09-28T09:27:28Z</time>
      </trkpt>
      <trkpt lat="43.62685" lon="5.43883">
        <ele>555</ele>
        <time>2016-09-28T09:27:38Z</time>
      </trkpt>
      <trkpt lat="43.62686" lon="5.43895">
        <ele>556</ele>
        <time>2016-09-28T09:27:49Z</time>
      </trkpt>
      <trkpt lat="43.6268" lon="5.43903">
        <ele>556</ele>
        <time>2016-09-28T09:27:58Z</time>
      </trkpt>
      <trkpt lat="43.62678" lon="5.43914">
        <ele>557</ele>
        <time>2016-09-28T09:28:07Z</time>
      </trkpt>
      <trkpt lat="43.62679" lon="5.43926">
        <ele>553</ele>
        <time>2016-09-28T09:28:13Z</time>
      </trkpt>
      <trkpt lat="43.62678" lon="5.43938">
        <ele>553</ele>
        <time>2016-09-28T09:28:24Z</time>
      </trkpt>
      <trkpt lat="43.62675" lon="5.43949">
        <ele>553</ele>
        <time>2016-09-28T09:28:32Z</time>
      </trkpt>
      <trkpt lat="43.62671" lon="5.4396">
        <ele>555</ele>
        <time>2016-09-28T09:28:41Z</time>
      </trkpt>
      <trkpt lat="43.62672" lon="5.43972">
        <ele>553</ele>
        <time>2016-09-28T09:28:54Z</time>
      </trkpt>
      <trkpt lat="43.62671" lon="5.43984">
        <ele>555</ele>
        <time>2016-09-28T09:29:04Z</time>
      </trkpt>
      <trkpt lat="43.62674" lon="5.43994">
        <ele>555</ele>
        <time>2016-09-28T09:29:10Z</time>
      </trkpt>
      <trkpt lat="43.62674" lon="5.44005">
        <ele>555</ele>
        <time>2016-09-28T09:29:19Z</time>
      </trkpt>
      <trkpt lat="43.62672" lon="5.44016">
        <ele>554</ele>
        <time>2016-09-28T09:29:29Z</time>
      </trkpt>
      <trkpt lat="43.6267" lon="5.44027">
        <ele>551</ele>
        <time>2016-09-28T09:29:38Z</time>
      </trkpt>
      <trkpt lat="43.62667" lon="5.44039">
        <ele>550</ele>
        <time>2016-09-28T09:29:49Z</time>
      </trkpt>
      <trkpt lat="43.62665" lon="5.4405">
        <ele>549</ele>
        <time>2016-09-28T09:30:01Z</time>
      </trkpt>
      <trkpt lat="43.62665" lon="5.44062">
        <ele>546</ele>
        <time>2016-09-28T09:30:11Z</time>
      </trkpt>
      <trkpt lat="43.62666" lon="5.44073">
        <ele>546</ele>
        <time>2016-09-28T09:30:20Z</time>
      </trkpt>
      <trkpt lat="43.62666" lon="5.44084">
        <ele>549</ele>
        <time>2016-09-28T09:30:29Z</time>
      </trkpt>
      <trkpt lat="43.62666" lon="5.44096">
        <ele>546</ele>
        <time>2016-09-28T09:30:37Z</time>
      </trkpt>
      <trkpt lat="43.62664" lon="5.44108">
        <ele>546</ele>
        <time>2016-09-28T09:30:47Z</time>
      </trkpt>
      <trkpt lat="43.62663" lon="5.4412">
        <ele>549</ele>
        <time>2016-09-28T09:30:57Z</time>
      </trkpt>
      <trkpt lat="43.62657" lon="5.44129">
        <ele>550</ele>
        <time>2016-09-28T09:31:10Z</time>
      </trkpt>
      <trkpt lat="43.62654" lon="5.4414">
        <ele>550</ele>
        <time>2016-09-28T09:31:25Z</time>
      </trkpt>
      <trkpt lat="43.62651" lon="5.44151">
        <ele>549</ele>
        <time>2016-09-28T09:31:40Z</time>
      </trkpt>
      <trkpt lat="43.62647" lon="5.44162">
        <ele>549</ele>
        <time>2016-09-28T09:31:49Z</time>
      </trkpt>
      <trkpt lat="43.62646" lon="5.44174">
        <ele>549</ele>
        <time>2016-09-28T09:31:59Z</time>
      </trkpt>
      <trkpt lat="43.62643" lon="5.44185">
        <ele>550</ele>
        <time>2016-09-28T09:32:10Z</time>
      </trkpt>
      <trkpt lat="43.62642" lon="5.44197">
        <ele>550</ele>
        <time>2016-09-28T09:32:18Z</time>
      </trkpt>
      <trkpt lat="43.62637" lon="5.44207">
        <ele>545</ele>
        <time>2016-09-28T09:32:28Z</time>
      </trkpt>
      <trkpt lat="43.62634" lon="5.44218">
        <ele>543</ele>
        <time>2016-09-28T09:32:36Z</time>
      </trkpt>
      <trkpt lat="43.62632" lon="5.4423">
        <ele>547</ele>
        <time>2016-09-28T09:32:43Z</time>
      </trkpt>
      <trkpt lat="43.62631" lon="5.44241">
        <ele>550</ele>
        <time>2016-09-28T09:32:51Z</time>
      </trkpt>
      <trkpt lat="43.62626" lon="5.44251">
        <ele>550</ele>
        <time>2016-09-28T09:33:02Z</time>
      </trkpt>
      <trkpt lat="43.6262" lon="5.44259">
        <ele>551</ele>
        <time>2016-09-28T09:33:11Z</time>
      </trkpt>
      <trkpt lat="43.62618" lon="5.4427">
        <ele>552</ele>
        <time>2016-09-28T09:33:20Z</time>
      </trkpt>
      <trkpt lat="43.62616" lon="5.4428">
        <ele>555</ele>
        <time>2016-09-28T09:33:28Z</time>
      </trkpt>
      <trkpt lat="43.62613" lon="5.44291">
        <ele>555</ele>
        <time>2016-09-28T09:33:39Z</time>
      </trkpt>
      <trkpt lat="43.62608" lon="5.443">
        <ele>552</ele>
        <time>2016-09-28T09:33:50Z</time>
      </trkpt>
      <trkpt lat="43.62603" lon="5.4431">
        <ele>551</ele>
        <time>2016-09-28T09:33:59Z</time>
      </trkpt>
      <trkpt lat="43.62601" lon="5.44321">
        <ele>553</ele>
        <time>2016-09-28T09:34:08Z</time>
      </trkpt>
      <trkpt lat="43.62597" lon="5.44331">
        <ele>553</ele>
        <time>2016-09-28T09:34:17Z</time>
      </trkpt>
      <trkpt lat="43.62594" lon="5.44342">
        <ele>553</ele>
        <time>2016-09-28T09:34:27Z</time>
      </trkpt>
      <trkpt lat="43.62593" lon="5.44354">
        <ele>550</ele>
        <time>2016-09-28T09:34:38Z</time>
      </trkpt>
      <trkpt lat="43.62592" lon="5.44366">
        <ele>549</ele>
        <time>2016-09-28T09:34:54Z</time>
      </trkpt>
      <trkpt lat="43.62591" lon="5.44378">
        <ele>547</ele>
        <time>2016-09-28T09:35:35Z</time>
      </trkpt>
      <trkpt lat="43.6259" lon="5.44389">
        <ele>546</ele>
        <time>2016-09-28T09:35:42Z</time>
      </trkpt>
      <trkpt lat="43.6259" lon="5.44402">
        <ele>544</ele>
        <time>2016-09-28T09:35:58Z</time>
      </trkpt>
      <trkpt lat="43.62591" lon="5.44414">
        <ele>544</ele>
        <time>2016-09-28T09:36:11Z</time>
      </trkpt>
      <trkpt lat="43.62589" lon="5.44425">
        <ele>543</ele>
        <time>2016-09-28T09:36:21Z</time>
      </trkpt>
      <trkpt lat="43.62588" lon="5.44437">
        <ele>544</ele>
        <time>2016-09-28T09:36:30Z</time>
      </trkpt>
      <trkpt lat="43.62591" lon="5.44448">
        <ele>540</ele>
        <time>2016-09-28T09:36:48Z</time>
      </trkpt>
      <trkpt lat="43.62587" lon="5.44458">
        <ele>538</ele>
        <time>2016-09-28T09:36:58Z</time>
      </trkpt>
      <trkpt lat="43.62583" lon="5.44469">
        <ele>540</ele>
        <time>2016-09-28T09:37:13Z</time>
      </trkpt>
      <trkpt lat="43.62578" lon="5.44478">
        <ele>542</ele>
        <time>2016-09-28T09:37:26Z</time>
      </trkpt>
      <trkpt lat="43.62574" lon="5.4449">
        <ele>543</ele>
        <time>2016-09-28T09:37:38Z</time>
      </trkpt>
      <trkpt lat="43.62571" lon="5.44501">
        <ele>544</ele>
        <time>2016-09-28T09:37:49Z</time>
      </trkpt>
      <trkpt lat="43.6257" lon="5.44512">
        <ele>545</ele>
        <time>2016-09-28T09:38:00Z</time>
      </trkpt>
      <trkpt lat="43.62569" lon="5.44524">
        <ele>546</ele>
        <time>2016-09-28T09:38:09Z</time>
      </trkpt>
      <trkpt lat="43.62568" lon="5.44536">
        <ele>542</ele>
        <time>2016-09-28T09:38:22Z</time>
      </trkpt>
      <trkpt lat="43.62566" lon="5.44547">
        <ele>539</ele>
        <time>2016-09-28T09:38:37Z</time>
      </trkpt>
      <trkpt lat="43.62562" lon="5.44558">
        <ele>536</ele>
        <time>2016-09-28T09:38:46Z</time>
      </trkpt>
      <trkpt lat="43.62558" lon="5.44568">
        <ele>536</ele>
        <time>2016-09-28T09:39:23Z</time>
      </trkpt>
      <trkpt lat="43.62553" lon="5.44578">
        <ele>540</ele>
        <time>2016-09-28T09:41:03Z</time>
      </trkpt>
      <trkpt lat="43.62547" lon="5.44587">
        <ele>538</ele>
        <time>2016-09-28T09:41:14Z</time>
      </trkpt>
      <trkpt lat="43.62541" lon="5.44595">
        <ele>537</ele>
        <time>2016-09-28T09:41:24Z</time>
      </trkpt>
      <trkpt lat="43.62537" lon="5.44605">
        <ele>536</ele>
        <time>2016-09-28T09:41:33Z</time>
      </trkpt>
      <trkpt lat="43.62531" lon="5.44614">
        <ele>534</ele>
        <time>2016-09-28T09:41:44Z</time>
      </trkpt>
      <trkpt lat="43.62526" lon="5.44624">
        <ele>534</ele>
        <time>2016-09-28T09:41:56Z</time>
      </trkpt>
      <trkpt lat="43.62524" lon="5.44636">
        <ele>534</ele>
        <time>2016-09-28T09:42:10Z</time>
      </trkpt>
      <trkpt lat="43.62517" lon="5.44642">
        <ele>532</ele>
        <time>2016-09-28T09:42:25Z</time>
      </trkpt>
      <trkpt lat="43.62512" lon="5.44651">
        <ele>533</ele>
        <time>2016-09-28T09:42:39Z</time>
      </trkpt>
      <trkpt lat="43.62507" lon="5.44661">
        <ele>533</ele>
        <time>2016-09-28T09:42:49Z</time>
      </trkpt>
      <trkpt lat="43.62501" lon="5.44668">
        <ele>533</ele>
        <time>2016-09-28T09:43:02Z</time>
      </trkpt>
      <trkpt lat="43.62495" lon="5.44678">
        <ele>534</ele>
        <time>2016-09-28T09:43:15Z</time>
      </trkpt>
      <trkpt lat="43.62491" lon="5.44687">
        <ele>535</ele>
        <time>2016-09-28T09:43:28Z</time>
      </trkpt>
      <trkpt lat="43.62484" lon="5.44693">
        <ele>535</ele>
        <time>2016-09-28T09:43:37Z</time>
      </trkpt>
      <trkpt lat="43.62478" lon="5.44701">
        <ele>536</ele>
        <time>2016-09-28T09:43:45Z</time>
      </trkpt>
      <trkpt lat="43.62473" lon="5.44711">
        <ele>536</ele>
        <time>2016-09-28T09:43:54Z</time>
      </trkpt>
      <trkpt lat="43.62469" lon="5.44722">
        <ele>536</ele>
        <time>2016-09-28T09:44:08Z</time>
      </trkpt>
      <trkpt lat="43.62465" lon="5.44732">
        <ele>537</ele>
        <time>2016-09-28T09:44:17Z</time>
      </trkpt>
      <trkpt lat="43.6246" lon="5.44742">
        <ele>536</ele>
        <time>2016-09-28T09:44:27Z</time>
      </trkpt>
      <trkpt lat="43.62455" lon="5.44753">
        <ele>536</ele>
        <time>2016-09-28T09:44:38Z</time>
      </trkpt>
      <trkpt lat="43.6245" lon="5.44762">
        <ele>538</ele>
        <time>2016-09-28T09:44:48Z</time>
      </trkpt>
      <trkpt lat="43.62445" lon="5.44772">
        <ele>538</ele>
        <time>2016-09-28T09:44:57Z</time>
      </trkpt>
      <trkpt lat="43.62441" lon="5.44782">
        <ele>538</ele>
        <time>2016-09-28T09:45:09Z</time>
      </trkpt>
      <trkpt lat="43.62437" lon="5.44793">
        <ele>538</ele>
        <time>2016-09-28T09:45:21Z</time>
      </trkpt>
      <trkpt lat="43.62431" lon="5.44801">
        <ele>539</ele>
        <time>2016-09-28T09:45:33Z</time>
      </trkpt>
      <trkpt lat="43.62424" lon="5.44808">
        <ele>541</ele>
        <time>2016-09-28T09:45:44Z</time>
      </trkpt>
      <trkpt lat="43.62417" lon="5.44814">
        <ele>540</ele>
        <time>2016-09-28T09:45:55Z</time>
      </trkpt>
      <trkpt lat="43.62411" lon="5.44822">
        <ele>543</ele>
        <time>2016-09-28T09:46:05Z</time>
      </trkpt>
      <trkpt lat="43.62404" lon="5.44828">
        <ele>545</ele>
        <time>2016-09-28T09:46:16Z</time>
      </trkpt>
      <trkpt lat="43.62399" lon="5.44838">
        <ele>544</ele>
        <time>2016-09-28T09:46:27Z</time>
      </trkpt>
      <trkpt lat="43.62392" lon="5.44845">
        <ele>545</ele>
        <time>2016-09-28T09:46:40Z</time>
      </trkpt>
      <trkpt lat="43.62385" lon="5.44851">
        <ele>546</ele>
        <time>2016-09-28T09:46:50Z</time>
      </trkpt>
      <trkpt lat="43.62378" lon="5.44858">
        <ele>548</ele>
        <time>2016-09-28T09:46:59Z</time>
      </trkpt>
      <trkpt lat="43.6237" lon="5.44861">
        <ele>550</ele>
        <time>2016-09-28T09:47:11Z</time>
      </trkpt>
      <trkpt lat="43.62363" lon="5.44866">
        <ele>549</ele>
        <time>2016-09-28T09:47:21Z</time>
      </trkpt>
      <trkpt lat="43.62355" lon="5.44871">
        <ele>548</ele>
        <time>2016-09-28T09:47:29Z</time>
      </trkpt>
      <trkpt lat="43.62347" lon="5.44875">
        <ele>547</ele>
        <time>2016-09-28T09:47:37Z</time>
      </trkpt>
      <trkpt lat="43.6234" lon="5.4488">
        <ele>548</ele>
        <time>2016-09-28T09:47:45Z</time>
      </trkpt>
      <trkpt lat="43.62333" lon="5.44888">
        <ele>548</ele>
        <time>2016-09-28T09:48:00Z</time>
      </trkpt>
      <trkpt lat="43.62326" lon="5.44893">
        <ele>548</ele>
        <time>2016-09-28T09:48:12Z</time>
      </trkpt>
      <trkpt lat="43.6232" lon="5.44901">
        <ele>548</ele>
        <time>2016-09-28T09:48:24Z</time>
      </trkpt>
      <trkpt lat="43.62313" lon="5.44907">
        <ele>548</ele>
        <time>2016-09-28T09:48:35Z</time>
      </trkpt>
      <trkpt lat="43.62307" lon="5.44914">
        <ele>548</ele>
        <time>2016-09-28T09:48:45Z</time>
      </trkpt>
      <trkpt lat="43.62298" lon="5.44912">
        <ele>550</ele>
        <time>2016-09-28T09:48:58Z</time>
      </trkpt>
      <trkpt lat="43.62291" lon="5.44905">
        <ele>551</ele>
        <time>2016-09-28T09:49:14Z</time>
      </trkpt>
      <trkpt lat="43.62282" lon="5.44907">
        <ele>550</ele>
        <time>2016-09-28T09:49:34Z</time>
      </trkpt>
      <trkpt lat="43.62274" lon="5.4491">
        <ele>546</ele>
        <time>2016-09-28T09:51:46Z</time>
      </trkpt>
      <trkpt lat="43.62266" lon="5.44915">
        <ele>549</ele>
        <time>2016-09-28T09:52:05Z</time>
      </trkpt>
      <trkpt lat="43.62257" lon="5.44915">
        <ele>549</ele>
        <time>2016-09-28T09:52:15Z</time>
      </trkpt>
      <trkpt lat="43.62248" lon="5.44916">
        <ele>551</ele>
        <time>2016-09-28T09:52:25Z</time>
      </trkpt>
      <trkpt lat="43.6224" lon="5.44918">
        <ele>551</ele>
        <time>2016-09-28T09:52:34Z</time>
      </trkpt>
      <trkpt lat="43.62231" lon="5.4492">
        <ele>551</ele>
        <time>2016-09-28T09:52:44Z</time>
      </trkpt>
      <trkpt lat="43.62223" lon="5.44918">
        <ele>552</ele>
        <time>2016-09-28T09:52:56Z</time>
      </trkpt>
      <trkpt lat="43.62214" lon="5.44917">
        <ele>557</ele>
        <time>2016-09-28T09:53:10Z</time>
      </trkpt>
      <trkpt lat="43.62206" lon="5.44912">
        <ele>559</ele>
        <time>2016-09-28T09:53:21Z</time>
      </trkpt>
      <trkpt lat="43.62197" lon="5.44911">
        <ele>562</ele>
        <time>2016-09-28T09:53:32Z</time>
      </trkpt>
      <trkpt lat="43.62189" lon="5.44908">
        <ele>560</ele>
        <time>2016-09-28T09:53:40Z</time>
      </trkpt>
      <trkpt lat="43.62185" lon="5.44897">
        <ele>559</ele>
        <time>2016-09-28T09:53:50Z</time>
      </trkpt>
      <trkpt lat="43.6218" lon="5.44887">
        <ele>564</ele>
        <time>2016-09-28T09:54:01Z</time>
      </trkpt>
      <trkpt lat="43.62172" lon="5.44884">
        <ele>563</ele>
        <time>2016-09-28T09:54:11Z</time>
      </trkpt>
      <trkpt lat="43.62164" lon="5.44884">
        <ele>560</ele>
        <time>2016-09-28T09:54:18Z</time>
      </trkpt>
      <trkpt lat="43.62157" lon="5.44887">
        <ele>557</ele>
        <time>2016-09-28T09:54:24Z</time>
      </trkpt>
      <trkpt lat="43.62148" lon="5.44888">
        <ele>557</ele>
        <time>2016-09-28T09:54:30Z</time>
      </trkpt>
      <trkpt lat="43.6214" lon="5.44892">
        <ele>555</ele>
        <time>2016-09-28T09:54:39Z</time>
      </trkpt>
      <trkpt lat="43.62132" lon="5.44896">
        <ele>556</ele>
        <time>2016-09-28T09:54:50Z</time>
      </trkpt>
      <trkpt lat="43.62125" lon="5.44902">
        <ele>559</ele>
        <time>2016-09-28T09:55:00Z</time>
      </trkpt>
      <trkpt lat="43.62117" lon="5.44905">
        <ele>560</ele>
        <time>2016-09-28T09:55:09Z</time>
      </trkpt>
      <trkpt lat="43.62109" lon="5.44908">
        <ele>558</ele>
        <time>2016-09-28T09:55:14Z</time>
      </trkpt>
      <trkpt lat="43.62101" lon="5.4491">
        <ele>560</ele>
        <time>2016-09-28T09:55:23Z</time>
      </trkpt>
      <trkpt lat="43.62094" lon="5.44914">
        <ele>559</ele>
        <time>2016-09-28T09:55:29Z</time>
      </trkpt>
      <trkpt lat="43.62088" lon="5.44922">
        <ele>558</ele>
        <time>2016-09-28T09:55:37Z</time>
      </trkpt>
      <trkpt lat="43.6208" lon="5.44926">
        <ele>559</ele>
        <time>2016-09-28T09:55:44Z</time>
      </trkpt>
      <trkpt lat="43.62072" lon="5.44932">
        <ele>560</ele>
        <time>2016-09-28T09:55:53Z</time>
      </trkpt>
      <trkpt lat="43.62064" lon="5.44936">
        <ele>560</ele>
        <time>2016-09-28T09:56:03Z</time>
      </trkpt>
      <trkpt lat="43.62057" lon="5.44939">
        <ele>560</ele>
        <time>2016-09-28T09:56:10Z</time>
      </trkpt>
      <trkpt lat="43.62049" lon="5.44945">
        <ele>562</ele>
        <time>2016-09-28T09:56:18Z</time>
      </trkpt>
      <trkpt lat="43.62042" lon="5.44951">
        <ele>563</ele>
        <time>2016-09-28T09:56:27Z</time>
      </trkpt>
      <trkpt lat="43.62035" lon="5.44958">
        <ele>565</ele>
        <time>2016-09-28T09:56:37Z</time>
      </trkpt>
      <trkpt lat="43.62028" lon="5.44966">
        <ele>563</ele>
        <time>2016-09-28T09:56:46Z</time>
      </trkpt>
      <trkpt lat="43.6202" lon="5.44969">
        <ele>563</ele>
        <time>2016-09-28T09:56:53Z</time>
      </trkpt>
      <trkpt lat="43.62012" lon="5.44974">
        <ele>562</ele>
        <time>2016-09-28T09:57:00Z</time>
      </trkpt>
      <trkpt lat="43.62004" lon="5.44979">
        <ele>561</ele>
        <time>2016-09-28T09:57:08Z</time>
      </trkpt>
      <trkpt lat="43.61997" lon="5.44985">
        <ele>561</ele>
        <time>2016-09-28T09:57:17Z</time>
      </trkpt>
      <trkpt lat="43.6199" lon="5.4499">
        <ele>563</ele>
        <time>2016-09-28T09:57:25Z</time>
      </trkpt>
      <trkpt lat="43.61982" lon="5.44993">
        <ele>562</ele>
        <time>2016-09-28T09:57:32Z</time>
      </trkpt>
      <trkpt lat="43.61975" lon="5.44999">
        <ele>561</ele>
        <time>2016-09-28T09:57:39Z</time>
      </trkpt>
      <trkpt lat="43.61968" lon="5.45004">
        <ele>559</ele>
        <time>2016-09-28T09:57:46Z</time>
      </trkpt>
      <trkpt lat="43.61961" lon="5.4501">
        <ele>558</ele>
        <time>2016-09-28T09:57:56Z</time>
      </trkpt>
      <trkpt lat="43.61953" lon="5.45014">
        <ele>557</ele>
        <time>2016-09-28T09:58:04Z</time>
      </trkpt>
      <trkpt lat="43.61944" lon="5.45017">
        <ele>554</ele>
        <time>2016-09-28T09:58:18Z</time>
      </trkpt>
      <trkpt lat="43.61936" lon="5.45022">
        <ele>552</ele>
        <time>2016-09-28T09:58:26Z</time>
      </trkpt>
      <trkpt lat="43.6193" lon="5.4503">
        <ele>551</ele>
        <time>2016-09-28T09:58:40Z</time>
      </trkpt>
      <trkpt lat="43.61922" lon="5.45035">
        <ele>551</ele>
        <time>2016-09-28T09:58:52Z</time>
      </trkpt>
      <trkpt lat="43.61914" lon="5.45038">
        <ele>551</ele>
        <time>2016-09-28T09:59:02Z</time>
      </trkpt>
      <trkpt lat="43.61906" lon="5.45043">
        <ele>550</ele>
        <time>2016-09-28T09:59:12Z</time>
      </trkpt>
      <trkpt lat="43.619" lon="5.4505">
        <ele>548</ele>
        <time>2016-09-28T09:59:21Z</time>
      </trkpt>
      <trkpt lat="43.61891" lon="5.45053">
        <ele>548</ele>
        <time>2016-09-28T09:59:29Z</time>
      </trkpt>
      <trkpt lat="43.61884" lon="5.45059">
        <ele>549</ele>
        <time>2016-09-28T09:59:37Z</time>
      </trkpt>
      <trkpt lat="43.61877" lon="5.45065">
        <ele>550</ele>
        <time>2016-09-28T09:59:46Z</time>
      </trkpt>
      <trkpt lat="43.61869" lon="5.45066">
        <ele>550</ele>
        <time>2016-09-28T09:59:53Z</time>
      </trkpt>
      <trkpt lat="43.61862" lon="5.45071">
        <ele>549</ele>
        <time>2016-09-28T10:00:02Z</time>
      </trkpt>
      <trkpt lat="43.61855" lon="5.45076">
        <ele>549</ele>
        <time>2016-09-28T10:00:11Z</time>
      </trkpt>
      <trkpt lat="43.61846" lon="5.4508">
        <ele>547</ele>
        <time>2016-09-28T10:00:19Z</time>
      </trkpt>
      <trkpt lat="43.61838" lon="5.45082">
        <ele>546</ele>
        <time>2016-09-28T10:00:29Z</time>
      </trkpt>
      <trkpt lat="43.61831" lon="5.45087">
        <ele>548</ele>
        <time>2016-09-28T10:00:40Z</time>
      </trkpt>
      <trkpt lat="43.61823" lon="5.45091">
        <ele>547</ele>
        <time>2016-09-28T10:00:51Z</time>
      </trkpt>
      <trkpt lat="43.61815" lon="5.45095">
        <ele>544</ele>
        <time>2016-09-28T10:01:06Z</time>
      </trkpt>
      <trkpt lat="43.61807" lon="5.45097">
        <ele>545</ele>
        <time>2016-09-28T10:01:13Z</time>
      </trkpt>
      <trkpt lat="43.61799" lon="5.451">
        <ele>545</ele>
        <time>2016-09-28T10:01:21Z</time>
      </trkpt>
      <trkpt lat="43.61792" lon="5.45105">
        <ele>545</ele>
        <time>2016-09-28T10:01:29Z</time>
      </trkpt>
      <trkpt lat="43.61785" lon="5.45111">
        <ele>546</ele>
        <time>2016-09-28T10:01:39Z</time>
      </trkpt>
      <trkpt lat="43.61778" lon="5.45118">
        <ele>547</ele>
        <time>2016-09-28T10:01:48Z</time>
      </trkpt>
      <trkpt lat="43.61769" lon="5.45121">
        <ele>545</ele>
        <time>2016-09-28T10:01:58Z</time>
      </trkpt>
      <trkpt lat="43.61761" lon="5.45125">
        <ele>545</ele>
        <time>2016-09-28T10:02:07Z</time>
      </trkpt>
      <trkpt lat="43.61753" lon="5.45128">
        <ele>544</ele>
        <time>2016-09-28T10:02:15Z</time>
      </trkpt>
      <trkpt lat="43.61745" lon="5.45132">
        <ele>544</ele>
        <time>2016-09-28T10:02:22Z</time>
      </trkpt>
      <trkpt lat="43.61738" lon="5.45136">
        <ele>544</ele>
        <time>2016-09-28T10:02:31Z</time>
      </trkpt>
      <trkpt lat="43.6173" lon="5.45142">
        <ele>545</ele>
        <time>2016-09-28T10:02:38Z</time>
      </trkpt>
      <trkpt lat="43.61722" lon="5.45148">
        <ele>546</ele>
        <time>2016-09-28T10:02:46Z</time>
      </trkpt>
      <trkpt lat="43.61716" lon="5.45157">
        <ele>545</ele>
        <time>2016-09-28T10:02:55Z</time>
      </trkpt>
      <trkpt lat="43.61709" lon="5.45164">
        <ele>544</ele>
        <time>2016-09-28T10:03:04Z</time>
      </trkpt>
      <trkpt lat="43.61703" lon="5.45172">
        <ele>543</ele>
        <time>2016-09-28T10:03:12Z</time>
      </trkpt>
      <trkpt lat="43.61695" lon="5.45178">
        <ele>541</ele>
        <time>2016-09-28T10:03:21Z</time>
      </trkpt>
      <trkpt lat="43.61688" lon="5.45184">
        <ele>541</ele>
        <time>2016-09-28T10:03:32Z</time>
      </trkpt>
      <trkpt lat="43.6168" lon="5.45187">
        <ele>547</ele>
        <time>2016-09-28T10:05:05Z</time>
      </trkpt>
      <trkpt lat="43.61671" lon="5.45184">
        <ele>546</ele>
        <time>2016-09-28T10:05:14Z</time>
      </trkpt>
      <trkpt lat="43.61663" lon="5.45182">
        <ele>547</ele>
        <time>2016-09-28T10:05:25Z</time>
      </trkpt>
      <trkpt lat="43.61655" lon="5.45183">
        <ele>544</ele>
        <time>2016-09-28T10:05:32Z</time>
      </trkpt>
      <trkpt lat="43.61648" lon="5.45191">
        <ele>547</ele>
        <time>2016-09-28T10:05:41Z</time>
      </trkpt>
      <trkpt lat="43.61642" lon="5.452">
        <ele>546</ele>
        <time>2016-09-28T10:05:49Z</time>
      </trkpt>
      <trkpt lat="43.61636" lon="5.45209">
        <ele>544</ele>
        <time>2016-09-28T10:05:59Z</time>
      </trkpt>
      <trkpt lat="43.61632" lon="5.45219">
        <ele>546</ele>
        <time>2016-09-28T10:06:08Z</time>
      </trkpt>
      <trkpt lat="43.61627" lon="5.45229">
        <ele>544</ele>
        <time>2016-09-28T10:06:17Z</time>
      </trkpt>
      <trkpt lat="43.61621" lon="5.45238">
        <ele>546</ele>
        <time>2016-09-28T10:06:29Z</time>
      </trkpt>
      <trkpt lat="43.61618" lon="5.45249">
        <ele>543</ele>
        <time>2016-09-28T10:06:37Z</time>
      </trkpt>
      <trkpt lat="43.61613" lon="5.45258">
        <ele>541</ele>
        <time>2016-09-28T10:06:46Z</time>
      </trkpt>
      <trkpt lat="43.6161" lon="5.45269">
        <ele>541</ele>
        <time>2016-09-28T10:06:55Z</time>
      </trkpt>
      <trkpt lat="43.6161" lon="5.4528">
        <ele>540</ele>
        <time>2016-09-28T10:07:02Z</time>
      </trkpt>
      <trkpt lat="43.61607" lon="5.45289">
        <ele>541</ele>
        <time>2016-09-28T10:07:10Z</time>
      </trkpt>
      <trkpt lat="43.61604" lon="5.45299">
        <ele>540</ele>
        <time>2016-09-28T10:07:18Z</time>
      </trkpt>
      <trkpt lat="43.61603" lon="5.4531">
        <ele>542</ele>
        <time>2016-09-28T10:07:27Z</time>
      </trkpt>
      <trkpt lat="43.61604" lon="5.45323">
        <ele>543</ele>
        <time>2016-09-28T10:07:37Z</time>
      </trkpt>
      <trkpt lat="43.61603" lon="5.45334">
        <ele>543</ele>
        <time>2016-09-28T10:07:45Z</time>
      </trkpt>
      <trkpt lat="43.61602" lon="5.45345">
        <ele>544</ele>
        <time>2016-09-28T10:07:53Z</time>
      </trkpt>
      <trkpt lat="43.61602" lon="5.45357">
        <ele>543</ele>
        <time>2016-09-28T10:08:04Z</time>
      </trkpt>
      <trkpt lat="43.61602" lon="5.45368">
        <ele>544</ele>
        <time>2016-09-28T10:08:11Z</time>
      </trkpt>
      <trkpt lat="43.61602" lon="5.45378">
        <ele>546</ele>
        <time>2016-09-28T10:08:17Z</time>
      </trkpt>
      <trkpt lat="43.61603" lon="5.45389">
        <ele>547</ele>
        <time>2016-09-28T10:08:25Z</time>
      </trkpt>
      <trkpt lat="43.61602" lon="5.45401">
        <ele>548</ele>
        <time>2016-09-28T10:08:36Z</time>
      </trkpt>
      <trkpt lat="43.61602" lon="5.45412">
        <ele>549</ele>
        <time>2016-09-28T10:08:45Z</time>
      </trkpt>
      <trkpt lat="43.61602" lon="5.45424">
        <ele>547</ele>
        <time>2016-09-28T10:08:53Z</time>
      </trkpt>
      <trkpt lat="43.61602" lon="5.45435">
        <ele>547</ele>
        <time>2016-09-28T10:09:01Z</time>
      </trkpt>
      <trkpt lat="43.61602" lon="5.45447">
        <ele>547</ele>
        <time>2016-09-28T10:09:08Z</time>
      </trkpt>
      <trkpt lat="43.61603" lon="5.45459">
        <ele>547</ele>
        <time>2016-09-28T10:09:17Z</time>
      </trkpt>
      <trkpt lat="43.61603" lon="5.4547">
        <ele>548</ele>
        <time>2016-09-28T10:09:26Z</time>
      </trkpt>
      <trkpt lat="43.61605" lon="5.45482">
        <ele>548</ele>
        <time>2016-09-28T10:09:35Z</time>
      </trkpt>
      <trkpt lat="43.61605" lon="5.45493">
        <ele>550</ele>
        <time>2016-09-28T10:09:43Z</time>
      </trkpt>
      <trkpt lat="43.61604" lon="5.45504">
        <ele>548</ele>
        <time>2016-09-28T10:09:53Z</time>
      </trkpt>
      <trkpt lat="43.61601" lon="5.45514">
        <ele>545</ele>
        <time>2016-09-28T10:10:03Z</time>
      </trkpt>
      <trkpt lat="43.61599" lon="5.45525">
        <ele>543</ele>
        <time>2016-09-28T10:10:11Z</time>
      </trkpt>
      <trkpt lat="43.61598" lon="5.45536">
        <ele>543</ele>
        <time>2016-09-28T10:10:20Z</time>
      </trkpt>
      <trkpt lat="43.61601" lon="5.45546">
        <ele>541</ele>
        <time>2016-09-28T10:10:33Z</time>
      </trkpt>
      <trkpt lat="43.61608" lon="5.45555">
        <ele>541</ele>
        <time>2016-09-28T10:11:02Z</time>
      </trkpt>
      <trkpt lat="43.61614" lon="5.45563">
        <ele>547</ele>
        <time>2016-09-28T11:02:26Z</time>
      </trkpt>
      <trkpt lat="43.61607" lon="5.45568">
        <ele>543</ele>
        <time>2016-09-28T11:12:28Z</time>
      </trkpt>
      <trkpt lat="43.61604" lon="5.4558">
        <ele>544</ele>
        <time>2016-09-28T11:12:58Z</time>
      </trkpt>
      <trkpt lat="43.61605" lon="5.45592">
        <ele>543</ele>
        <time>2016-09-28T11:13:23Z</time>
      </trkpt>
      <trkpt lat="43.61611" lon="5.456">
        <ele>544</ele>
        <time>2016-09-28T11:13:31Z</time>
      </trkpt>
      <trkpt lat="43.61618" lon="5.45608">
        <ele>544</ele>
        <time>2016-09-28T11:13:42Z</time>
      </trkpt>
      <trkpt lat="43.61625" lon="5.45616">
        <ele>545</ele>
        <time>2016-09-28T11:13:52Z</time>
      </trkpt>
      <trkpt lat="43.61633" lon="5.45619">
        <ele>545</ele>
        <time>2016-09-28T11:14:04Z</time>
      </trkpt>
      <trkpt lat="43.61641" lon="5.45622">
        <ele>549</ele>
        <time>2016-09-28T11:14:16Z</time>
      </trkpt>
      <trkpt lat="43.61647" lon="5.4563">
        <ele>549</ele>
        <time>2016-09-28T11:14:24Z</time>
      </trkpt>
      <trkpt lat="43.61651" lon="5.45641">
        <ele>548</ele>
        <time>2016-09-28T11:14:32Z</time>
      </trkpt>
      <trkpt lat="43.61657" lon="5.4565">
        <ele>551</ele>
        <time>2016-09-28T11:14:41Z</time>
      </trkpt>
      <trkpt lat="43.61661" lon="5.45659">
        <ele>550</ele>
        <time>2016-09-28T11:14:49Z</time>
      </trkpt>
      <trkpt lat="43.61664" lon="5.45669">
        <ele>549</ele>
        <time>2016-09-28T11:14:56Z</time>
      </trkpt>
      <trkpt lat="43.61667" lon="5.4568">
        <ele>551</ele>
        <time>2016-09-28T11:15:04Z</time>
      </trkpt>
      <trkpt lat="43.6167" lon="5.45691">
        <ele>550</ele>
        <time>2016-09-28T11:15:13Z</time>
      </trkpt>
      <trkpt lat="43.61671" lon="5.45703">
        <ele>551</ele>
        <time>2016-09-28T11:15:23Z</time>
      </trkpt>
      <trkpt lat="43.61674" lon="5.45713">
        <ele>551</ele>
        <time>2016-09-28T11:15:30Z</time>
      </trkpt>
      <trkpt lat="43.61674" lon="5.45725">
        <ele>553</ele>
        <time>2016-09-28T11:15:40Z</time>
      </trkpt>
      <trkpt lat="43.61676" lon="5.45737">
        <ele>554</ele>
        <time>2016-09-28T11:15:49Z</time>
      </trkpt>
      <trkpt lat="43.6168" lon="5.45748">
        <ele>553</ele>
        <time>2016-09-28T11:15:58Z</time>
      </trkpt>
      <trkpt lat="43.61685" lon="5.45758">
        <ele>550</ele>
        <time>2016-09-28T11:16:11Z</time>
      </trkpt>
      <trkpt lat="43.61688" lon="5.4577">
        <ele>549</ele>
        <time>2016-09-28T11:16:21Z</time>
      </trkpt>
      <trkpt lat="43.61693" lon="5.4578">
        <ele>549</ele>
        <time>2016-09-28T11:16:31Z</time>
      </trkpt>
      <trkpt lat="43.61696" lon="5.4579">
        <ele>546</ele>
        <time>2016-09-28T11:16:38Z</time>
      </trkpt>
      <trkpt lat="43.617" lon="5.45799">
        <ele>542</ele>
        <time>2016-09-28T11:16:45Z</time>
      </trkpt>
      <trkpt lat="43.61703" lon="5.4581">
        <ele>539</ele>
        <time>2016-09-28T11:16:54Z</time>
      </trkpt>
      <trkpt lat="43.61704" lon="5.45821">
        <ele>541</ele>
        <time>2016-09-28T11:17:04Z</time>
      </trkpt>
      <trkpt lat="43.61705" lon="5.45832">
        <ele>539</ele>
        <time>2016-09-28T11:17:11Z</time>
      </trkpt>
      <trkpt lat="43.61704" lon="5.45843">
        <ele>537</ele>
        <time>2016-09-28T11:17:18Z</time>
      </trkpt>
      <trkpt lat="43.61703" lon="5.45854">
        <ele>539</ele>
        <time>2016-09-28T11:17:26Z</time>
      </trkpt>
      <trkpt lat="43.61701" lon="5.45865">
        <ele>543</ele>
        <time>2016-09-28T11:17:35Z</time>
      </trkpt>
      <trkpt lat="43.617" lon="5.45878">
        <ele>541</ele>
        <time>2016-09-28T11:17:43Z</time>
      </trkpt>
      <trkpt lat="43.61698" lon="5.45889">
        <ele>540</ele>
        <time>2016-09-28T11:17:52Z</time>
      </trkpt>
      <trkpt lat="43.61696" lon="5.459">
        <ele>537</ele>
        <time>2016-09-28T11:17:59Z</time>
      </trkpt>
      <trkpt lat="43.61695" lon="5.45913">
        <ele>538</ele>
        <time>2016-09-28T11:18:09Z</time>
      </trkpt>
      <trkpt lat="43.61696" lon="5.45925">
        <ele>534</ele>
        <time>2016-09-28T11:18:21Z</time>
      </trkpt>
      <trkpt lat="43.61704" lon="5.45931">
        <ele>532</ele>
        <time>2016-09-28T11:18:51Z</time>
      </trkpt>
      <trkpt lat="43.61711" lon="5.45924">
        <ele>532</ele>
        <time>2016-09-28T11:19:10Z</time>
      </trkpt>
      <trkpt lat="43.61717" lon="5.45917">
        <ele>532</ele>
        <time>2016-09-28T11:19:19Z</time>
      </trkpt>
      <trkpt lat="43.61725" lon="5.4591">
        <ele>533</ele>
        <time>2016-09-28T11:19:29Z</time>
      </trkpt>
      <trkpt lat="43.61731" lon="5.45902">
        <ele>534</ele>
        <time>2016-09-28T11:19:38Z</time>
      </trkpt>
      <trkpt lat="43.61737" lon="5.45894">
        <ele>533</ele>
        <time>2016-09-28T11:19:47Z</time>
      </trkpt>
      <trkpt lat="43.61745" lon="5.45891">
        <ele>534</ele>
        <time>2016-09-28T11:19:56Z</time>
      </trkpt>
      <trkpt lat="43.61753" lon="5.45885">
        <ele>535</ele>
        <time>2016-09-28T11:20:04Z</time>
      </trkpt>
      <trkpt lat="43.61761" lon="5.45884">
        <ele>537</ele>
        <time>2016-09-28T11:20:18Z</time>
      </trkpt>
      <trkpt lat="43.61767" lon="5.45876">
        <ele>535</ele>
        <time>2016-09-28T11:20:32Z</time>
      </trkpt>
      <trkpt lat="43.61771" lon="5.45866">
        <ele>534</ele>
        <time>2016-09-28T11:20:38Z</time>
      </trkpt>
      <trkpt lat="43.61772" lon="5.45856">
        <ele>533</ele>
        <time>2016-09-28T11:20:44Z</time>
      </trkpt>
      <trkpt lat="43.61774" lon="5.45845">
        <ele>536</ele>
        <time>2016-09-28T11:20:53Z</time>
      </trkpt>
      <trkpt lat="43.61777" lon="5.45833">
        <ele>537</ele>
        <time>2016-09-28T11:21:05Z</time>
      </trkpt>
      <trkpt lat="43.61779" lon="5.45822">
        <ele>537</ele>
        <time>2016-09-28T11:21:17Z</time>
      </trkpt>
      <trkpt lat="43.61782" lon="5.45811">
        <ele>538</ele>
        <time>2016-09-28T11:21:27Z</time>
      </trkpt>
      <trkpt lat="43.61786" lon="5.458">
        <ele>538</ele>
        <time>2016-09-28T11:21:40Z</time>
      </trkpt>
      <trkpt lat="43.61789" lon="5.4579">
        <ele>538</ele>
        <time>2016-09-28T11:21:48Z</time>
      </trkpt>
      <trkpt lat="43.61793" lon="5.45779">
        <ele>536</ele>
        <time>2016-09-28T11:21:56Z</time>
      </trkpt>
      <trkpt lat="43.61794" lon="5.45767">
        <ele>537</ele>
        <time>2016-09-28T11:22:05Z</time>
      </trkpt>
      <trkpt lat="43.61798" lon="5.45757">
        <ele>539</ele>
        <time>2016-09-28T11:22:13Z</time>
      </trkpt>
      <trkpt lat="43.61802" lon="5.45747">
        <ele>538</ele>
        <time>2016-09-28T11:22:24Z</time>
      </trkpt>
      <trkpt lat="43.61804" lon="5.45735">
        <ele>535</ele>
        <time>2016-09-28T11:22:34Z</time>
      </trkpt>
      <trkpt lat="43.61806" lon="5.45723">
        <ele>534</ele>
        <time>2016-09-28T11:22:43Z</time>
      </trkpt>
      <trkpt lat="43.61804" lon="5.45711">
        <ele>533</ele>
        <time>2016-09-28T11:22:52Z</time>
      </trkpt>
      <trkpt lat="43.61802" lon="5.457">
        <ele>533</ele>
        <time>2016-09-28T11:23:01Z</time>
      </trkpt>
      <trkpt lat="43.61799" lon="5.4569">
        <ele>533</ele>
        <time>2016-09-28T11:23:09Z</time>
      </trkpt>
      <trkpt lat="43.61796" lon="5.45679">
        <ele>530</ele>
        <time>2016-09-28T11:23:17Z</time>
      </trkpt>
      <trkpt lat="43.61792" lon="5.45669">
        <ele>529</ele>
        <time>2016-09-28T11:23:25Z</time>
      </trkpt>
      <trkpt lat="43.61788" lon="5.45657">
        <ele>529</ele>
        <time>2016-09-28T11:23:35Z</time>
      </trkpt>
      <trkpt lat="43.61787" lon="5.45646">
        <ele>531</ele>
        <time>2016-09-28T11:23:44Z</time>
      </trkpt>
      <trkpt lat="43.61784" lon="5.45635">
        <ele>532</ele>
        <time>2016-09-28T11:23:53Z</time>
      </trkpt>
      <trkpt lat="43.61784" lon="5.45623">
        <ele>535</ele>
        <time>2016-09-28T11:24:02Z</time>
      </trkpt>
      <trkpt lat="43.61783" lon="5.45612">
        <ele>536</ele>
        <time>2016-09-28T11:24:11Z</time>
      </trkpt>
      <trkpt lat="43.61781" lon="5.456">
        <ele>535</ele>
        <time>2016-09-28T11:24:20Z</time>
      </trkpt>
      <trkpt lat="43.6178" lon="5.45589">
        <ele>535</ele>
        <time>2016-09-28T11:24:30Z</time>
      </trkpt>
      <trkpt lat="43.61778" lon="5.45579">
        <ele>533</ele>
        <time>2016-09-28T11:24:37Z</time>
      </trkpt>
      <trkpt lat="43.61777" lon="5.45568">
        <ele>534</ele>
        <time>2016-09-28T11:24:45Z</time>
      </trkpt>
      <trkpt lat="43.61776" lon="5.45556">
        <ele>536</ele>
        <time>2016-09-28T11:24:58Z</time>
      </trkpt>
      <trkpt lat="43.61774" lon="5.45544">
        <ele>533</ele>
        <time>2016-09-28T11:25:04Z</time>
      </trkpt>
      <trkpt lat="43.61773" lon="5.45533">
        <ele>534</ele>
        <time>2016-09-28T11:25:11Z</time>
      </trkpt>
      <trkpt lat="43.61771" lon="5.45522">
        <ele>533</ele>
        <time>2016-09-28T11:25:18Z</time>
      </trkpt>
      <trkpt lat="43.61768" lon="5.45512">
        <ele>532</ele>
        <time>2016-09-28T11:25:25Z</time>
      </trkpt>
      <trkpt lat="43.61766" lon="5.45501">
        <ele>531</ele>
        <time>2016-09-28T11:25:32Z</time>
      </trkpt>
      <trkpt lat="43.61764" lon="5.45489">
        <ele>531</ele>
        <time>2016-09-28T11:25:41Z</time>
      </trkpt>
      <trkpt lat="43.6176" lon="5.45478">
        <ele>528</ele>
        <time>2016-09-28T11:25:49Z</time>
      </trkpt>
      <trkpt lat="43.61758" lon="5.45467">
        <ele>526</ele>
        <time>2016-09-28T11:25:57Z</time>
      </trkpt>
      <trkpt lat="43.61756" lon="5.45455">
        <ele>524</ele>
        <time>2016-09-28T11:26:07Z</time>
      </trkpt>
      <trkpt lat="43.61758" lon="5.45444">
        <ele>527</ele>
        <time>2016-09-28T11:26:16Z</time>
      </trkpt>
      <trkpt lat="43.61758" lon="5.45432">
        <ele>527</ele>
        <time>2016-09-28T11:26:25Z</time>
      </trkpt>
      <trkpt lat="43.61758" lon="5.4542">
        <ele>526</ele>
        <time>2016-09-28T11:26:33Z</time>
      </trkpt>
      <trkpt lat="43.61753" lon="5.4541">
        <ele>524</ele>
        <time>2016-09-28T11:26:40Z</time>
      </trkpt>
      <trkpt lat="43.61752" lon="5.45398">
        <ele>524</ele>
        <time>2016-09-28T11:26:47Z</time>
      </trkpt>
      <trkpt lat="43.6175" lon="5.45386">
        <ele>528</ele>
        <time>2016-09-28T11:27:00Z</time>
      </trkpt>
      <trkpt lat="43.61752" lon="5.45374">
        <ele>529</ele>
        <time>2016-09-28T11:27:08Z</time>
      </trkpt>
      <trkpt lat="43.61754" lon="5.45362">
        <ele>530</ele>
        <time>2016-09-28T11:27:18Z</time>
      </trkpt>
      <trkpt lat="43.61754" lon="5.45351">
        <ele>532</ele>
        <time>2016-09-28T11:27:29Z</time>
      </trkpt>
      <trkpt lat="43.61753" lon="5.45339">
        <ele>532</ele>
        <time>2016-09-28T11:27:38Z</time>
      </trkpt>
      <trkpt lat="43.61752" lon="5.45328">
        <ele>532</ele>
        <time>2016-09-28T11:27:46Z</time>
      </trkpt>
      <trkpt lat="43.61748" lon="5.45318">
        <ele>529</ele>
        <time>2016-09-28T11:27:54Z</time>
      </trkpt>
      <trkpt lat="43.61749" lon="5.45306">
        <ele>528</ele>
        <time>2016-09-28T11:28:03Z</time>
      </trkpt>
      <trkpt lat="43.61749" lon="5.45294">
        <ele>521</ele>
        <time>2016-09-28T11:28:17Z</time>
      </trkpt>
      <trkpt lat="43.61754" lon="5.45286">
        <ele>519</ele>
        <time>2016-09-28T11:28:26Z</time>
      </trkpt>
      <trkpt lat="43.61762" lon="5.4528">
        <ele>519</ele>
        <time>2016-09-28T11:28:34Z</time>
      </trkpt>
      <trkpt lat="43.61768" lon="5.45273">
        <ele>519</ele>
        <time>2016-09-28T11:28:42Z</time>
      </trkpt>
      <trkpt lat="43.61776" lon="5.45266">
        <ele>518</ele>
        <time>2016-09-28T11:28:54Z</time>
      </trkpt>
      <trkpt lat="43.61784" lon="5.45262">
        <ele>515</ele>
        <time>2016-09-28T11:29:05Z</time>
      </trkpt>
      <trkpt lat="43.61791" lon="5.45255">
        <ele>514</ele>
        <time>2016-09-28T11:29:19Z</time>
      </trkpt>
      <trkpt lat="43.61798" lon="5.45249">
        <ele>514</ele>
        <time>2016-09-28T11:29:31Z</time>
      </trkpt>
      <trkpt lat="43.61807" lon="5.45247">
        <ele>514</ele>
        <time>2016-09-28T11:29:44Z</time>
      </trkpt>
      <trkpt lat="43.61813" lon="5.4524">
        <ele>510</ele>
        <time>2016-09-28T11:29:54Z</time>
      </trkpt>
      <trkpt lat="43.61822" lon="5.45243">
        <ele>510</ele>
        <time>2016-09-28T11:30:09Z</time>
      </trkpt>
      <trkpt lat="43.61829" lon="5.45239">
        <ele>509</ele>
        <time>2016-09-28T11:30:20Z</time>
      </trkpt>
      <trkpt lat="43.61838" lon="5.45236">
        <ele>507</ele>
        <time>2016-09-28T11:30:31Z</time>
      </trkpt>
      <trkpt lat="43.61846" lon="5.45235">
        <ele>505</ele>
        <time>2016-09-28T11:30:42Z</time>
      </trkpt>
      <trkpt lat="43.61854" lon="5.45234">
        <ele>504</ele>
        <time>2016-09-28T11:30:50Z</time>
      </trkpt>
      <trkpt lat="43.61863" lon="5.45233">
        <ele>502</ele>
        <time>2016-09-28T11:30:58Z</time>
      </trkpt>
      <trkpt lat="43.61871" lon="5.4523">
        <ele>500</ele>
        <time>2016-09-28T11:31:07Z</time>
      </trkpt>
      <trkpt lat="43.6188" lon="5.45228">
        <ele>499</ele>
        <time>2016-09-28T11:31:17Z</time>
      </trkpt>
      <trkpt lat="43.61888" lon="5.45229">
        <ele>497</ele>
        <time>2016-09-28T11:31:27Z</time>
      </trkpt>
      <trkpt lat="43.61897" lon="5.4523">
        <ele>497</ele>
        <time>2016-09-28T11:31:39Z</time>
      </trkpt>
      <trkpt lat="43.61906" lon="5.45229">
        <ele>493</ele>
        <time>2016-09-28T11:31:50Z</time>
      </trkpt>
      <trkpt lat="43.61913" lon="5.45228">
        <ele>492</ele>
        <time>2016-09-28T11:31:58Z</time>
      </trkpt>
      <trkpt lat="43.61921" lon="5.45225">
        <ele>493</ele>
        <time>2016-09-28T11:32:07Z</time>
      </trkpt>
      <trkpt lat="43.61929" lon="5.45221">
        <ele>495</ele>
        <time>2016-09-28T11:32:16Z</time>
      </trkpt>
      <trkpt lat="43.61937" lon="5.45217">
        <ele>492</ele>
        <time>2016-09-28T11:32:22Z</time>
      </trkpt>
      <trkpt lat="43.61944" lon="5.45215">
        <ele>495</ele>
        <time>2016-09-28T11:32:31Z</time>
      </trkpt>
      <trkpt lat="43.61953" lon="5.45214">
        <ele>496</ele>
        <time>2016-09-28T11:32:39Z</time>
      </trkpt>
      <trkpt lat="43.61962" lon="5.45213">
        <ele>496</ele>
        <time>2016-09-28T11:32:47Z</time>
      </trkpt>
      <trkpt lat="43.61969" lon="5.4521">
        <ele>499</ele>
        <time>2016-09-28T11:32:59Z</time>
      </trkpt>
      <trkpt lat="43.61978" lon="5.45207">
        <ele>498</ele>
        <time>2016-09-28T11:33:07Z</time>
      </trkpt>
      <trkpt lat="43.61985" lon="5.45203">
        <ele>498</ele>
        <time>2016-09-28T11:33:16Z</time>
      </trkpt>
      <trkpt lat="43.61993" lon="5.45198">
        <ele>497</ele>
        <time>2016-09-28T11:33:23Z</time>
      </trkpt>
      <trkpt lat="43.62001" lon="5.45195">
        <ele>497</ele>
        <time>2016-09-28T11:33:30Z</time>
      </trkpt>
      <trkpt lat="43.62009" lon="5.45192">
        <ele>497</ele>
        <time>2016-09-28T11:33:37Z</time>
      </trkpt>
      <trkpt lat="43.62016" lon="5.45188">
        <ele>498</ele>
        <time>2016-09-28T11:33:45Z</time>
      </trkpt>
      <trkpt lat="43.62025" lon="5.45185">
        <ele>497</ele>
        <time>2016-09-28T11:33:53Z</time>
      </trkpt>
      <trkpt lat="43.62032" lon="5.4518">
        <ele>499</ele>
        <time>2016-09-28T11:34:01Z</time>
      </trkpt>
      <trkpt lat="43.6204" lon="5.45176">
        <ele>497</ele>
        <time>2016-09-28T11:34:08Z</time>
      </trkpt>
      <trkpt lat="43.62048" lon="5.45172">
        <ele>498</ele>
        <time>2016-09-28T11:34:17Z</time>
      </trkpt>
      <trkpt lat="43.62054" lon="5.45165">
        <ele>499</ele>
        <time>2016-09-28T11:34:25Z</time>
      </trkpt>
      <trkpt lat="43.62061" lon="5.4516">
        <ele>499</ele>
        <time>2016-09-28T11:34:33Z</time>
      </trkpt>
      <trkpt lat="43.62069" lon="5.45154">
        <ele>501</ele>
        <time>2016-09-28T11:34:42Z</time>
      </trkpt>
      <trkpt lat="43.62076" lon="5.45149">
        <ele>500</ele>
        <time>2016-09-28T11:34:50Z</time>
      </trkpt>
      <trkpt lat="43.62084" lon="5.45145">
        <ele>500</ele>
        <time>2016-09-28T11:34:58Z</time>
      </trkpt>
      <trkpt lat="43.62093" lon="5.45141">
        <ele>498</ele>
        <time>2016-09-28T11:35:06Z</time>
      </trkpt>
      <trkpt lat="43.62101" lon="5.45138">
        <ele>498</ele>
        <time>2016-09-28T11:35:14Z</time>
      </trkpt>
      <trkpt lat="43.6211" lon="5.45134">
        <ele>499</ele>
        <time>2016-09-28T11:35:23Z</time>
      </trkpt>
      <trkpt lat="43.62118" lon="5.45132">
        <ele>498</ele>
        <time>2016-09-28T11:35:31Z</time>
      </trkpt>
      <trkpt lat="43.62126" lon="5.4513">
        <ele>498</ele>
        <time>2016-09-28T11:35:39Z</time>
      </trkpt>
      <trkpt lat="43.62135" lon="5.45128">
        <ele>496</ele>
        <time>2016-09-28T11:35:47Z</time>
      </trkpt>
      <trkpt lat="43.62142" lon="5.45123">
        <ele>496</ele>
        <time>2016-09-28T11:35:55Z</time>
      </trkpt>
      <trkpt lat="43.6215" lon="5.45118">
        <ele>494</ele>
        <time>2016-09-28T11:36:03Z</time>
      </trkpt>
      <trkpt lat="43.62159" lon="5.45113">
        <ele>494</ele>
        <time>2016-09-28T11:36:11Z</time>
      </trkpt>
      <trkpt lat="43.62166" lon="5.45107">
        <ele>493</ele>
        <time>2016-09-28T11:36:18Z</time>
      </trkpt>
      <trkpt lat="43.62174" lon="5.45103">
        <ele>494</ele>
        <time>2016-09-28T11:36:27Z</time>
      </trkpt>
      <trkpt lat="43.62182" lon="5.451">
        <ele>493</ele>
        <time>2016-09-28T11:36:35Z</time>
      </trkpt>
      <trkpt lat="43.6219" lon="5.45095">
        <ele>492</ele>
        <time>2016-09-28T11:36:43Z</time>
      </trkpt>
      <trkpt lat="43.62197" lon="5.45087">
        <ele>491</ele>
        <time>2016-09-28T11:36:59Z</time>
      </trkpt>
      <trkpt lat="43.62204" lon="5.45082">
        <ele>489</ele>
        <time>2016-09-28T11:37:08Z</time>
      </trkpt>
      <trkpt lat="43.62213" lon="5.45082">
        <ele>489</ele>
        <time>2016-09-28T11:37:16Z</time>
      </trkpt>
      <trkpt lat="43.62221" lon="5.4508">
        <ele>491</ele>
        <time>2016-09-28T11:37:24Z</time>
      </trkpt>
      <trkpt lat="43.62229" lon="5.45076">
        <ele>491</ele>
        <time>2016-09-28T11:37:32Z</time>
      </trkpt>
      <trkpt lat="43.62237" lon="5.45073">
        <ele>493</ele>
        <time>2016-09-28T11:37:40Z</time>
      </trkpt>
      <trkpt lat="43.62246" lon="5.45072">
        <ele>492</ele>
        <time>2016-09-28T11:37:47Z</time>
      </trkpt>
      <trkpt lat="43.62253" lon="5.4507">
        <ele>492</ele>
        <time>2016-09-28T11:37:54Z</time>
      </trkpt>
      <trkpt lat="43.62261" lon="5.45071">
        <ele>493</ele>
        <time>2016-09-28T11:38:03Z</time>
      </trkpt>
      <trkpt lat="43.6227" lon="5.45071">
        <ele>491</ele>
        <time>2016-09-28T11:38:10Z</time>
      </trkpt>
      <trkpt lat="43.62278" lon="5.45071">
        <ele>489</ele>
        <time>2016-09-28T11:38:17Z</time>
      </trkpt>
      <trkpt lat="43.62286" lon="5.45072">
        <ele>487</ele>
        <time>2016-09-28T11:38:24Z</time>
      </trkpt>
      <trkpt lat="43.62294" lon="5.45073">
        <ele>487</ele>
        <time>2016-09-28T11:38:31Z</time>
      </trkpt>
      <trkpt lat="43.62303" lon="5.45072">
        <ele>485</ele>
        <time>2016-09-28T11:38:38Z</time>
      </trkpt>
      <trkpt lat="43.62311" lon="5.45072">
        <ele>485</ele>
        <time>2016-09-28T11:38:45Z</time>
      </trkpt>
      <trkpt lat="43.62319" lon="5.45071">
        <ele>486</ele>
        <time>2016-09-28T11:38:52Z</time>
      </trkpt>
      <trkpt lat="43.62327" lon="5.45067">
        <ele>485</ele>
        <time>2016-09-28T11:38:59Z</time>
      </trkpt>
      <trkpt lat="43.62335" lon="5.45066">
        <ele>486</ele>
        <time>2016-09-28T11:39:06Z</time>
      </trkpt>
      <trkpt lat="43.62343" lon="5.45064">
        <ele>484</ele>
        <time>2016-09-28T11:39:12Z</time>
      </trkpt>
      <trkpt lat="43.62352" lon="5.45062">
        <ele>483</ele>
        <time>2016-09-28T11:39:19Z</time>
      </trkpt>
      <trkpt lat="43.6236" lon="5.4506">
        <ele>485</ele>
        <time>2016-09-28T11:39:27Z</time>
      </trkpt>
      <trkpt lat="43.62368" lon="5.45056">
        <ele>485</ele>
        <time>2016-09-28T11:39:34Z</time>
      </trkpt>
      <trkpt lat="43.62376" lon="5.45053">
        <ele>484</ele>
        <time>2016-09-28T11:39:42Z</time>
      </trkpt>
      <trkpt lat="43.62384" lon="5.45048">
        <ele>485</ele>
        <time>2016-09-28T11:39:50Z</time>
      </trkpt>
      <trkpt lat="43.62391" lon="5.45043">
        <ele>485</ele>
        <time>2016-09-28T11:39:58Z</time>
      </trkpt>
      <trkpt lat="43.62398" lon="5.45038">
        <ele>487</ele>
        <time>2016-09-28T11:40:07Z</time>
      </trkpt>
      <trkpt lat="43.62406" lon="5.45033">
        <ele>489</ele>
        <time>2016-09-28T11:40:17Z</time>
      </trkpt>
      <trkpt lat="43.62414" lon="5.45029">
        <ele>490</ele>
        <time>2016-09-28T11:40:25Z</time>
      </trkpt>
      <trkpt lat="43.62421" lon="5.45023">
        <ele>490</ele>
        <time>2016-09-28T11:40:34Z</time>
      </trkpt>
      <trkpt lat="43.62428" lon="5.45016">
        <ele>488</ele>
        <time>2016-09-28T11:40:43Z</time>
      </trkpt>
      <trkpt lat="43.62434" lon="5.45009">
        <ele>488</ele>
        <time>2016-09-28T11:40:53Z</time>
      </trkpt>
      <trkpt lat="43.62442" lon="5.45004">
        <ele>489</ele>
        <time>2016-09-28T11:41:02Z</time>
      </trkpt>
      <trkpt lat="43.6245" lon="5.44998">
        <ele>488</ele>
        <time>2016-09-28T11:41:09Z</time>
      </trkpt>
      <trkpt lat="43.62457" lon="5.44994">
        <ele>487</ele>
        <time>2016-09-28T11:41:18Z</time>
      </trkpt>
      <trkpt lat="43.62465" lon="5.4499">
        <ele>485</ele>
        <time>2016-09-28T11:41:26Z</time>
      </trkpt>
      <trkpt lat="43.62473" lon="5.44986">
        <ele>486</ele>
        <time>2016-09-28T11:41:34Z</time>
      </trkpt>
      <trkpt lat="43.6248" lon="5.44981">
        <ele>485</ele>
        <time>2016-09-28T11:41:42Z</time>
      </trkpt>
      <trkpt lat="43.62486" lon="5.44972">
        <ele>489</ele>
        <time>2016-09-28T11:41:54Z</time>
      </trkpt>
      <trkpt lat="43.62491" lon="5.44963">
        <ele>489</ele>
        <time>2016-09-28T11:42:02Z</time>
      </trkpt>
      <trkpt lat="43.62497" lon="5.44955">
        <ele>491</ele>
        <time>2016-09-28T11:42:11Z</time>
      </trkpt>
      <trkpt lat="43.62503" lon="5.44946">
        <ele>490</ele>
        <time>2016-09-28T11:42:21Z</time>
      </trkpt>
      <trkpt lat="43.62509" lon="5.44937">
        <ele>490</ele>
        <time>2016-09-28T11:42:29Z</time>
      </trkpt>
      <trkpt lat="43.62515" lon="5.44932">
        <ele>490</ele>
        <time>2016-09-28T11:42:36Z</time>
      </trkpt>
      <trkpt lat="43.62522" lon="5.44926">
        <ele>489</ele>
        <time>2016-09-28T11:42:42Z</time>
      </trkpt>
      <trkpt lat="43.6253" lon="5.44922">
        <ele>488</ele>
        <time>2016-09-28T11:42:50Z</time>
      </trkpt>
      <trkpt lat="43.62538" lon="5.44918">
        <ele>489</ele>
        <time>2016-09-28T11:42:58Z</time>
      </trkpt>
      <trkpt lat="43.62544" lon="5.44909">
        <ele>490</ele>
        <time>2016-09-28T11:43:08Z</time>
      </trkpt>
      <trkpt lat="43.62551" lon="5.449">
        <ele>492</ele>
        <time>2016-09-28T11:43:21Z</time>
      </trkpt>
      <trkpt lat="43.62559" lon="5.44896">
        <ele>494</ele>
        <time>2016-09-28T11:43:32Z</time>
      </trkpt>
      <trkpt lat="43.62566" lon="5.4489">
        <ele>494</ele>
        <time>2016-09-28T11:43:42Z</time>
      </trkpt>
      <trkpt lat="43.62572" lon="5.44884">
        <ele>495</ele>
        <time>2016-09-28T11:43:50Z</time>
      </trkpt>
      <trkpt lat="43.6258" lon="5.44877">
        <ele>494</ele>
        <time>2016-09-28T11:43:58Z</time>
      </trkpt>
      <trkpt lat="43.62587" lon="5.44872">
        <ele>494</ele>
        <time>2016-09-28T11:44:06Z</time>
      </trkpt>
      <trkpt lat="43.62595" lon="5.44867">
        <ele>495</ele>
        <time>2016-09-28T11:44:15Z</time>
      </trkpt>
      <trkpt lat="43.62603" lon="5.44862">
        <ele>495</ele>
        <time>2016-09-28T11:44:23Z</time>
      </trkpt>
      <trkpt lat="43.6261" lon="5.44855">
        <ele>498</ele>
        <time>2016-09-28T11:44:32Z</time>
      </trkpt>
      <trkpt lat="43.62618" lon="5.44851">
        <ele>502</ele>
        <time>2016-09-28T11:44:42Z</time>
      </trkpt>
      <trkpt lat="43.62626" lon="5.44847">
        <ele>500</ele>
        <time>2016-09-28T11:44:50Z</time>
      </trkpt>
      <trkpt lat="43.62635" lon="5.44845">
        <ele>499</ele>
        <time>2016-09-28T11:45:01Z</time>
      </trkpt>
      <trkpt lat="43.62642" lon="5.44837">
        <ele>495</ele>
        <time>2016-09-28T11:45:20Z</time>
      </trkpt>
      <trkpt lat="43.62643" lon="5.44826">
        <ele>493</ele>
        <time>2016-09-28T11:45:34Z</time>
      </trkpt>
      <trkpt lat="43.62643" lon="5.44814">
        <ele>493</ele>
        <time>2016-09-28T11:45:44Z</time>
      </trkpt>
      <trkpt lat="43.62642" lon="5.44802">
        <ele>493</ele>
        <time>2016-09-28T11:45:53Z</time>
      </trkpt>
      <trkpt lat="43.62642" lon="5.4479">
        <ele>491</ele>
        <time>2016-09-28T11:46:07Z</time>
      </trkpt>
      <trkpt lat="43.62647" lon="5.4478">
        <ele>487</ele>
        <time>2016-09-28T11:46:23Z</time>
      </trkpt>
      <trkpt lat="43.6265" lon="5.44769">
        <ele>488</ele>
        <time>2016-09-28T11:46:36Z</time>
      </trkpt>
      <trkpt lat="43.62652" lon="5.44758">
        <ele>486</ele>
        <time>2016-09-28T11:46:49Z</time>
      </trkpt>
      <trkpt lat="43.62653" lon="5.44747">
        <ele>485</ele>
        <time>2016-09-28T11:46:56Z</time>
      </trkpt>
      <trkpt lat="43.62651" lon="5.44735">
        <ele>483</ele>
        <time>2016-09-28T11:47:04Z</time>
      </trkpt>
      <trkpt lat="43.62653" lon="5.44723">
        <ele>483</ele>
        <time>2016-09-28T11:47:21Z</time>
      </trkpt>
      <trkpt lat="43.62656" lon="5.44714">
        <ele>483</ele>
        <time>2016-09-28T11:47:28Z</time>
      </trkpt>
      <trkpt lat="43.62659" lon="5.44704">
        <ele>481</ele>
        <time>2016-09-28T11:47:35Z</time>
      </trkpt>
      <trkpt lat="43.62662" lon="5.44693">
        <ele>478</ele>
        <time>2016-09-28T11:47:43Z</time>
      </trkpt>
      <trkpt lat="43.62666" lon="5.44682">
        <ele>474</ele>
        <time>2016-09-28T11:47:52Z</time>
      </trkpt>
      <trkpt lat="43.62671" lon="5.44672">
        <ele>474</ele>
        <time>2016-09-28T11:48:01Z</time>
      </trkpt>
      <trkpt lat="43.62677" lon="5.44664">
        <ele>473</ele>
        <time>2016-09-28T11:48:13Z</time>
      </trkpt>
      <trkpt lat="43.62682" lon="5.44654">
        <ele>473</ele>
        <time>2016-09-28T11:48:23Z</time>
      </trkpt>
      <trkpt lat="43.62686" lon="5.44644">
        <ele>472</ele>
        <time>2016-09-28T11:48:33Z</time>
      </trkpt>
      <trkpt lat="43.62692" lon="5.44635">
        <ele>473</ele>
        <time>2016-09-28T11:48:45Z</time>
      </trkpt>
      <trkpt lat="43.62699" lon="5.44628">
        <ele>469</ele>
        <time>2016-09-28T11:48:55Z</time>
      </trkpt>
      <trkpt lat="43.62705" lon="5.4462">
        <ele>468</ele>
        <time>2016-09-28T11:49:07Z</time>
      </trkpt>
      <trkpt lat="43.62706" lon="5.44608">
        <ele>462</ele>
        <time>2016-09-28T11:49:35Z</time>
      </trkpt>
      <trkpt lat="43.62711" lon="5.44598">
        <ele>463</ele>
        <time>2016-09-28T11:53:58Z</time>
      </trkpt>
      <trkpt lat="43.62715" lon="5.44587">
        <ele>464</ele>
        <time>2016-09-28T11:54:13Z</time>
      </trkpt>
      <trkpt lat="43.62718" lon="5.44577">
        <ele>466</ele>
        <time>2016-09-28T11:54:21Z</time>
      </trkpt>
      <trkpt lat="43.62723" lon="5.44567">
        <ele>466</ele>
        <time>2016-09-28T11:54:30Z</time>
      </trkpt>
      <trkpt lat="43.62727" lon="5.44557">
        <ele>465</ele>
        <time>2016-09-28T11:54:39Z</time>
      </trkpt>
      <trkpt lat="43.62732" lon="5.44547">
        <ele>466</ele>
        <time>2016-09-28T11:54:50Z</time>
      </trkpt>
      <trkpt lat="43.62737" lon="5.44538">
        <ele>471</ele>
        <time>2016-09-28T11:55:00Z</time>
      </trkpt>
      <trkpt lat="43.62742" lon="5.44528">
        <ele>470</ele>
        <time>2016-09-28T11:55:08Z</time>
      </trkpt>
      <trkpt lat="43.62745" lon="5.44518">
        <ele>470</ele>
        <time>2016-09-28T11:55:16Z</time>
      </trkpt>
      <trkpt lat="43.62749" lon="5.44507">
        <ele>469</ele>
        <time>2016-09-28T11:55:24Z</time>
      </trkpt>
      <trkpt lat="43.62754" lon="5.44497">
        <ele>468</ele>
        <time>2016-09-28T11:55:32Z</time>
      </trkpt>
      <trkpt lat="43.62761" lon="5.44491">
        <ele>470</ele>
        <time>2016-09-28T11:55:40Z</time>
      </trkpt>
      <trkpt lat="43.62769" lon="5.44486">
        <ele>467</ele>
        <time>2016-09-28T11:55:48Z</time>
      </trkpt>
      <trkpt lat="43.62778" lon="5.44488">
        <ele>466</ele>
        <time>2016-09-28T11:55:57Z</time>
      </trkpt>
      <trkpt lat="43.62786" lon="5.44492">
        <ele>464</ele>
        <time>2016-09-28T11:56:06Z</time>
      </trkpt>
      <trkpt lat="43.62794" lon="5.44486">
        <ele>464</ele>
        <time>2016-09-28T11:56:15Z</time>
      </trkpt>
      <trkpt lat="43.62803" lon="5.44486">
        <ele>467</ele>
        <time>2016-09-28T11:56:24Z</time>
      </trkpt>
      <trkpt lat="43.62809" lon="5.44477">
        <ele>467</ele>
        <time>2016-09-28T11:56:32Z</time>
      </trkpt>
      <trkpt lat="43.62813" lon="5.44467">
        <ele>468</ele>
        <time>2016-09-28T11:56:39Z</time>
      </trkpt>
      <trkpt lat="43.62815" lon="5.44456">
        <ele>468</ele>
        <time>2016-09-28T11:56:46Z</time>
      </trkpt>
      <trkpt lat="43.62819" lon="5.44445">
        <ele>468</ele>
        <time>2016-09-28T11:56:54Z</time>
      </trkpt>
      <trkpt lat="43.62822" lon="5.44434">
        <ele>470</ele>
        <time>2016-09-28T11:57:02Z</time>
      </trkpt>
      <trkpt lat="43.62826" lon="5.44424">
        <ele>470</ele>
        <time>2016-09-28T11:57:10Z</time>
      </trkpt>
      <trkpt lat="43.62829" lon="5.44413">
        <ele>469</ele>
        <time>2016-09-28T11:57:17Z</time>
      </trkpt>
      <trkpt lat="43.62831" lon="5.44402">
        <ele>471</ele>
        <time>2016-09-28T11:57:26Z</time>
      </trkpt>
      <trkpt lat="43.62834" lon="5.4439">
        <ele>471</ele>
        <time>2016-09-28T11:57:35Z</time>
      </trkpt>
      <trkpt lat="43.62834" lon="5.44379">
        <ele>472</ele>
        <time>2016-09-28T11:57:43Z</time>
      </trkpt>
      <trkpt lat="43.62831" lon="5.44368">
        <ele>471</ele>
        <time>2016-09-28T11:57:49Z</time>
      </trkpt>
      <trkpt lat="43.62829" lon="5.44357">
        <ele>469</ele>
        <time>2016-09-28T11:57:56Z</time>
      </trkpt>
      <trkpt lat="43.6283" lon="5.44345">
        <ele>469</ele>
        <time>2016-09-28T11:58:03Z</time>
      </trkpt>
      <trkpt lat="43.62836" lon="5.44336">
        <ele>471</ele>
        <time>2016-09-28T11:58:12Z</time>
      </trkpt>
      <trkpt lat="43.62839" lon="5.44325">
        <ele>471</ele>
        <time>2016-09-28T11:58:21Z</time>
      </trkpt>
      <trkpt lat="43.62841" lon="5.44313">
        <ele>475</ele>
        <time>2016-09-28T11:58:30Z</time>
      </trkpt>
      <trkpt lat="43.62844" lon="5.44302">
        <ele>476</ele>
        <time>2016-09-28T11:58:37Z</time>
      </trkpt>
      <trkpt lat="43.62845" lon="5.44292">
        <ele>475</ele>
        <time>2016-09-28T11:58:43Z</time>
      </trkpt>
      <trkpt lat="43.62849" lon="5.44281">
        <ele>476</ele>
        <time>2016-09-28T11:58:50Z</time>
      </trkpt>
      <trkpt lat="43.62849" lon="5.4427">
        <ele>474</ele>
        <time>2016-09-28T11:58:56Z</time>
      </trkpt>
      <trkpt lat="43.62852" lon="5.4426">
        <ele>473</ele>
        <time>2016-09-28T11:59:02Z</time>
      </trkpt>
      <trkpt lat="43.62854" lon="5.44249">
        <ele>471</ele>
        <time>2016-09-28T11:59:10Z</time>
      </trkpt>
      <trkpt lat="43.62858" lon="5.44238">
        <ele>472</ele>
        <time>2016-09-28T11:59:18Z</time>
      </trkpt>
      <trkpt lat="43.6286" lon="5.44227">
        <ele>471</ele>
        <time>2016-09-28T11:59:26Z</time>
      </trkpt>
      <trkpt lat="43.62861" lon="5.44216">
        <ele>472</ele>
        <time>2016-09-28T11:59:34Z</time>
      </trkpt>
      <trkpt lat="43.62864" lon="5.44205">
        <ele>473</ele>
        <time>2016-09-28T11:59:43Z</time>
      </trkpt>
      <trkpt lat="43.62866" lon="5.44193">
        <ele>476</ele>
        <time>2016-09-28T11:59:52Z</time>
      </trkpt>
      <trkpt lat="43.62868" lon="5.44183">
        <ele>476</ele>
        <time>2016-09-28T12:00:00Z</time>
      </trkpt>
      <trkpt lat="43.6287" lon="5.44171">
        <ele>476</ele>
        <time>2016-09-28T12:00:08Z</time>
      </trkpt>
      <trkpt lat="43.62873" lon="5.44161">
        <ele>475</ele>
        <time>2016-09-28T12:00:14Z</time>
      </trkpt>
      <trkpt lat="43.62876" lon="5.4415">
        <ele>474</ele>
        <time>2016-09-28T12:00:22Z</time>
      </trkpt>
      <trkpt lat="43.62879" lon="5.4414">
        <ele>474</ele>
        <time>2016-09-28T12:00:29Z</time>
      </trkpt>
      <trkpt lat="43.62884" lon="5.4413">
        <ele>478</ele>
        <time>2016-09-28T12:00:38Z</time>
      </trkpt>
      <trkpt lat="43.62889" lon="5.4412">
        <ele>476</ele>
        <time>2016-09-28T12:00:46Z</time>
      </trkpt>
      <trkpt lat="43.62892" lon="5.4411">
        <ele>476</ele>
        <time>2016-09-28T12:00:52Z</time>
      </trkpt>
      <trkpt lat="43.62891" lon="5.44099">
        <ele>475</ele>
        <time>2016-09-28T12:00:59Z</time>
      </trkpt>
      <trkpt lat="43.62889" lon="5.44088">
        <ele>472</ele>
        <time>2016-09-28T12:01:05Z</time>
      </trkpt>
      <trkpt lat="43.62887" lon="5.44076">
        <ele>472</ele>
        <time>2016-09-28T12:01:12Z</time>
      </trkpt>
      <trkpt lat="43.62886" lon="5.44064">
        <ele>472</ele>
        <time>2016-09-28T12:01:20Z</time>
      </trkpt>
      <trkpt lat="43.6289" lon="5.44053">
        <ele>476</ele>
        <time>2016-09-28T12:01:30Z</time>
      </trkpt>
      <trkpt lat="43.62894" lon="5.44043">
        <ele>475</ele>
        <time>2016-09-28T12:01:38Z</time>
      </trkpt>
      <trkpt lat="43.62897" lon="5.44032">
        <ele>474</ele>
        <time>2016-09-28T12:01:45Z</time>
      </trkpt>
      <trkpt lat="43.62901" lon="5.44022">
        <ele>475</ele>
        <time>2016-09-28T12:01:54Z</time>
      </trkpt>
      <trkpt lat="43.62905" lon="5.44012">
        <ele>475</ele>
        <time>2016-09-28T12:02:01Z</time>
      </trkpt>
      <trkpt lat="43.62908" lon="5.44">
        <ele>476</ele>
        <time>2016-09-28T12:02:09Z</time>
      </trkpt>
      <trkpt lat="43.62909" lon="5.43989">
        <ele>477</ele>
        <time>2016-09-28T12:02:16Z</time>
      </trkpt>
      <trkpt lat="43.6291" lon="5.43978">
        <ele>477</ele>
        <time>2016-09-28T12:02:23Z</time>
      </trkpt>
      <trkpt lat="43.62911" lon="5.43966">
        <ele>477</ele>
        <time>2016-09-28T12:02:30Z</time>
      </trkpt>
      <trkpt lat="43.62912" lon="5.43954">
        <ele>475</ele>
        <time>2016-09-28T12:02:38Z</time>
      </trkpt>
      <trkpt lat="43.62914" lon="5.43944">
        <ele>477</ele>
        <time>2016-09-28T12:02:46Z</time>
      </trkpt>
      <trkpt lat="43.62915" lon="5.43932">
        <ele>476</ele>
        <time>2016-09-28T12:02:53Z</time>
      </trkpt>
      <trkpt lat="43.62919" lon="5.43922">
        <ele>476</ele>
        <time>2016-09-28T12:03:00Z</time>
      </trkpt>
      <trkpt lat="43.62922" lon="5.43912">
        <ele>477</ele>
        <time>2016-09-28T12:03:08Z</time>
      </trkpt>
      <trkpt lat="43.62926" lon="5.43901">
        <ele>476</ele>
        <time>2016-09-28T12:03:16Z</time>
      </trkpt>
      <trkpt lat="43.62931" lon="5.43892">
        <ele>475</ele>
        <time>2016-09-28T12:03:23Z</time>
      </trkpt>
      <trkpt lat="43.62934" lon="5.43881">
        <ele>476</ele>
        <time>2016-09-28T12:03:31Z</time>
      </trkpt>
      <trkpt lat="43.62937" lon="5.43871">
        <ele>477</ele>
        <time>2016-09-28T12:03:39Z</time>
      </trkpt>
      <trkpt lat="43.62938" lon="5.4386">
        <ele>476</ele>
        <time>2016-09-28T12:03:46Z</time>
      </trkpt>
      <trkpt lat="43.6294" lon="5.43848">
        <ele>477</ele>
        <time>2016-09-28T12:03:53Z</time>
      </trkpt>
      <trkpt lat="43.6294" lon="5.43837">
        <ele>478</ele>
        <time>2016-09-28T12:04:00Z</time>
      </trkpt>
      <trkpt lat="43.62939" lon="5.43826">
        <ele>477</ele>
        <time>2016-09-28T12:04:07Z</time>
      </trkpt>
      <trkpt lat="43.62939" lon="5.43813">
        <ele>477</ele>
        <time>2016-09-28T12:04:15Z</time>
      </trkpt>
      <trkpt lat="43.62939" lon="5.43802">
        <ele>477</ele>
        <time>2016-09-28T12:04:23Z</time>
      </trkpt>
      <trkpt lat="43.62939" lon="5.4379">
        <ele>478</ele>
        <time>2016-09-28T12:04:32Z</time>
      </trkpt>
      <trkpt lat="43.6294" lon="5.43779">
        <ele>478</ele>
        <time>2016-09-28T12:04:39Z</time>
      </trkpt>
      <trkpt lat="43.6294" lon="5.43767">
        <ele>479</ele>
        <time>2016-09-28T12:04:48Z</time>
      </trkpt>
      <trkpt lat="43.62942" lon="5.43755">
        <ele>476</ele>
        <time>2016-09-28T12:04:54Z</time>
      </trkpt>
      <trkpt lat="43.62941" lon="5.43744">
        <ele>478</ele>
        <time>2016-09-28T12:05:02Z</time>
      </trkpt>
      <trkpt lat="43.6294" lon="5.43732">
        <ele>478</ele>
        <time>2016-09-28T12:05:09Z</time>
      </trkpt>
      <trkpt lat="43.62942" lon="5.43721">
        <ele>479</ele>
        <time>2016-09-28T12:05:16Z</time>
      </trkpt>
      <trkpt lat="43.62944" lon="5.43709">
        <ele>482</ele>
        <time>2016-09-28T12:05:27Z</time>
      </trkpt>
      <trkpt lat="43.62945" lon="5.43697">
        <ele>477</ele>
        <time>2016-09-28T12:06:39Z</time>
      </trkpt>
      <trkpt lat="43.62954" lon="5.43696">
        <ele>473</ele>
        <time>2016-09-28T12:07:46Z</time>
      </trkpt>
      <trkpt lat="43.62962" lon="5.43695">
        <ele>473</ele>
        <time>2016-09-28T12:07:56Z</time>
      </trkpt>
      <trkpt lat="43.6297" lon="5.43691">
        <ele>472</ele>
        <time>2016-09-28T12:08:08Z</time>
      </trkpt>
      <trkpt lat="43.62979" lon="5.43691">
        <ele>473</ele>
        <time>2016-09-28T12:08:16Z</time>
      </trkpt>
      <trkpt lat="43.62987" lon="5.43687">
        <ele>473</ele>
        <time>2016-09-28T12:08:26Z</time>
      </trkpt>
      <trkpt lat="43.62995" lon="5.43681">
        <ele>472</ele>
        <time>2016-09-28T12:08:33Z</time>
      </trkpt>
      <trkpt lat="43.63003" lon="5.43677">
        <ele>476</ele>
        <time>2016-09-28T12:08:42Z</time>
      </trkpt>
      <trkpt lat="43.63009" lon="5.43672">
        <ele>477</ele>
        <time>2016-09-28T12:08:49Z</time>
      </trkpt>
      <trkpt lat="43.63016" lon="5.43667">
        <ele>478</ele>
        <time>2016-09-28T12:08:56Z</time>
      </trkpt>
      <trkpt lat="43.63023" lon="5.4366">
        <ele>476</ele>
        <time>2016-09-28T12:09:04Z</time>
      </trkpt>
      <trkpt lat="43.6303" lon="5.43653">
        <ele>475</ele>
        <time>2016-09-28T12:09:11Z</time>
      </trkpt>
      <trkpt lat="43.63037" lon="5.43645">
        <ele>476</ele>
        <time>2016-09-28T12:09:19Z</time>
      </trkpt>
      <trkpt lat="43.63043" lon="5.43638">
        <ele>478</ele>
        <time>2016-09-28T12:09:28Z</time>
      </trkpt>
      <trkpt lat="43.63047" lon="5.43627">
        <ele>478</ele>
        <time>2016-09-28T12:09:36Z</time>
      </trkpt>
      <trkpt lat="43.6305" lon="5.43616">
        <ele>479</ele>
        <time>2016-09-28T12:09:44Z</time>
      </trkpt>
      <trkpt lat="43.63054" lon="5.43605">
        <ele>479</ele>
        <time>2016-09-28T12:09:52Z</time>
      </trkpt>
      <trkpt lat="43.63058" lon="5.43594">
        <ele>479</ele>
        <time>2016-09-28T12:10:01Z</time>
      </trkpt>
      <trkpt lat="43.63062" lon="5.43583">
        <ele>478</ele>
        <time>2016-09-28T12:10:09Z</time>
      </trkpt>
      <trkpt lat="43.63067" lon="5.43573">
        <ele>480</ele>
        <time>2016-09-28T12:10:19Z</time>
      </trkpt>
      <trkpt lat="43.63071" lon="5.43563">
        <ele>478</ele>
        <time>2016-09-28T12:10:27Z</time>
      </trkpt>
      <trkpt lat="43.63078" lon="5.43556">
        <ele>477</ele>
        <time>2016-09-28T12:10:36Z</time>
      </trkpt>
      <trkpt lat="43.63084" lon="5.43548">
        <ele>478</ele>
        <time>2016-09-28T12:10:45Z</time>
      </trkpt>
      <trkpt lat="43.63092" lon="5.43542">
        <ele>477</ele>
        <time>2016-09-28T12:10:53Z</time>
      </trkpt>
      <trkpt lat="43.63099" lon="5.43536">
        <ele>478</ele>
        <time>2016-09-28T12:11:03Z</time>
      </trkpt>
      <trkpt lat="43.63106" lon="5.43531">
        <ele>474</ele>
        <time>2016-09-28T12:11:11Z</time>
      </trkpt>
      <trkpt lat="43.63114" lon="5.43527">
        <ele>470</ele>
        <time>2016-09-28T12:11:19Z</time>
      </trkpt>
      <trkpt lat="43.63123" lon="5.43523">
        <ele>471</ele>
        <time>2016-09-28T12:11:27Z</time>
      </trkpt>
      <trkpt lat="43.63131" lon="5.43519">
        <ele>473</ele>
        <time>2016-09-28T12:11:35Z</time>
      </trkpt>
      <trkpt lat="43.63136" lon="5.4351">
        <ele>473</ele>
        <time>2016-09-28T12:11:44Z</time>
      </trkpt>
      <trkpt lat="43.6314" lon="5.435">
        <ele>473</ele>
        <time>2016-09-28T12:11:53Z</time>
      </trkpt>
      <trkpt lat="43.63146" lon="5.43491">
        <ele>475</ele>
        <time>2016-09-28T12:12:01Z</time>
      </trkpt>
      <trkpt lat="43.63153" lon="5.43483">
        <ele>476</ele>
        <time>2016-09-28T12:12:08Z</time>
      </trkpt>
      <trkpt lat="43.63158" lon="5.43476">
        <ele>475</ele>
        <time>2016-09-28T12:12:16Z</time>
      </trkpt>
      <trkpt lat="43.63165" lon="5.43467">
        <ele>475</ele>
        <time>2016-09-28T12:12:24Z</time>
      </trkpt>
      <trkpt lat="43.63171" lon="5.4346">
        <ele>476</ele>
        <time>2016-09-28T12:12:31Z</time>
      </trkpt>
      <trkpt lat="43.63177" lon="5.43451">
        <ele>476</ele>
        <time>2016-09-28T12:12:38Z</time>
      </trkpt>
      <trkpt lat="43.63184" lon="5.43444">
        <ele>476</ele>
        <time>2016-09-28T12:12:46Z</time>
      </trkpt>
      <trkpt lat="43.6319" lon="5.43438">
        <ele>476</ele>
        <time>2016-09-28T12:12:53Z</time>
      </trkpt>
      <trkpt lat="43.63197" lon="5.43431">
        <ele>477</ele>
        <time>2016-09-28T12:13:00Z</time>
      </trkpt>
      <trkpt lat="43.63204" lon="5.43424">
        <ele>478</ele>
        <time>2016-09-28T12:13:08Z</time>
      </trkpt>
      <trkpt lat="43.63211" lon="5.43417">
        <ele>477</ele>
        <time>2016-09-28T12:13:15Z</time>
      </trkpt>
      <trkpt lat="43.63219" lon="5.43411">
        <ele>475</ele>
        <time>2016-09-28T12:13:22Z</time>
      </trkpt>
      <trkpt lat="43.63227" lon="5.43406">
        <ele>474</ele>
        <time>2016-09-28T12:13:30Z</time>
      </trkpt>
      <trkpt lat="43.63235" lon="5.43403">
        <ele>476</ele>
        <time>2016-09-28T12:13:39Z</time>
      </trkpt>
      <trkpt lat="43.63244" lon="5.434">
        <ele>474</ele>
        <time>2016-09-28T12:13:48Z</time>
      </trkpt>
      <trkpt lat="43.63252" lon="5.43397">
        <ele>472</ele>
        <time>2016-09-28T12:13:56Z</time>
      </trkpt>
      <trkpt lat="43.63261" lon="5.43397">
        <ele>472</ele>
        <time>2016-09-28T12:14:07Z</time>
      </trkpt>
      <trkpt lat="43.63269" lon="5.43395">
        <ele>472</ele>
        <time>2016-09-28T12:14:14Z</time>
      </trkpt>
      <trkpt lat="43.63277" lon="5.43393">
        <ele>471</ele>
        <time>2016-09-28T12:14:22Z</time>
      </trkpt>
      <trkpt lat="43.63285" lon="5.43389">
        <ele>470</ele>
        <time>2016-09-28T12:14:29Z</time>
      </trkpt>
      <trkpt lat="43.63293" lon="5.43387">
        <ele>470</ele>
        <time>2016-09-28T12:14:36Z</time>
      </trkpt>
      <trkpt lat="43.63301" lon="5.43384">
        <ele>470</ele>
        <time>2016-09-28T12:14:43Z</time>
      </trkpt>
      <trkpt lat="43.63309" lon="5.4338">
        <ele>470</ele>
        <time>2016-09-28T12:14:52Z</time>
      </trkpt>
      <trkpt lat="43.63317" lon="5.43377">
        <ele>469</ele>
        <time>2016-09-28T12:14:59Z</time>
      </trkpt>
      <trkpt lat="43.63326" lon="5.43374">
        <ele>469</ele>
        <time>2016-09-28T12:15:06Z</time>
      </trkpt>
      <trkpt lat="43.63334" lon="5.43372">
        <ele>470</ele>
        <time>2016-09-28T12:15:14Z</time>
      </trkpt>
      <trkpt lat="43.63343" lon="5.4337">
        <ele>472</ele>
        <time>2016-09-28T12:15:22Z</time>
      </trkpt>
      <trkpt lat="43.63351" lon="5.43368">
        <ele>470</ele>
        <time>2016-09-28T12:15:29Z</time>
      </trkpt>
      <trkpt lat="43.6336" lon="5.43365">
        <ele>470</ele>
        <time>2016-09-28T12:15:37Z</time>
      </trkpt>
      <trkpt lat="43.63368" lon="5.43363">
        <ele>470</ele>
        <time>2016-09-28T12:15:44Z</time>
      </trkpt>
      <trkpt lat="43.63375" lon="5.43359">
        <ele>470</ele>
        <time>2016-09-28T12:15:53Z</time>
      </trkpt>
      <trkpt lat="43.63383" lon="5.43357">
        <ele>472</ele>
        <time>2016-09-28T12:16:03Z</time>
      </trkpt>
      <trkpt lat="43.63392" lon="5.43356">
        <ele>471</ele>
        <time>2016-09-28T12:16:10Z</time>
      </trkpt>
      <trkpt lat="43.634" lon="5.43356">
        <ele>472</ele>
        <time>2016-09-28T12:16:18Z</time>
      </trkpt>
      <trkpt lat="43.63408" lon="5.43354">
        <ele>471</ele>
        <time>2016-09-28T12:16:26Z</time>
      </trkpt>
      <trkpt lat="43.63417" lon="5.43351">
        <ele>471</ele>
        <time>2016-09-28T12:16:35Z</time>
      </trkpt>
      <trkpt lat="43.63425" lon="5.43345">
        <ele>470</ele>
        <time>2016-09-28T12:16:44Z</time>
      </trkpt>
      <trkpt lat="43.63433" lon="5.43343">
        <ele>472</ele>
        <time>2016-09-28T12:16:52Z</time>
      </trkpt>
      <trkpt lat="43.63441" lon="5.43338">
        <ele>471</ele>
        <time>2016-09-28T12:17:01Z</time>
      </trkpt>
      <trkpt lat="43.6345" lon="5.43336">
        <ele>475</ele>
        <time>2016-09-28T12:17:09Z</time>
      </trkpt>
      <trkpt lat="43.63458" lon="5.43331">
        <ele>475</ele>
        <time>2016-09-28T12:17:18Z</time>
      </trkpt>
      <trkpt lat="43.63465" lon="5.43325">
        <ele>475</ele>
        <time>2016-09-28T12:17:26Z</time>
      </trkpt>
      <trkpt lat="43.63473" lon="5.43318">
        <ele>472</ele>
        <time>2016-09-28T12:17:34Z</time>
      </trkpt>
      <trkpt lat="43.6348" lon="5.43315">
        <ele>471</ele>
        <time>2016-09-28T12:17:43Z</time>
      </trkpt>
      <trkpt lat="43.63489" lon="5.43312">
        <ele>471</ele>
        <time>2016-09-28T12:17:51Z</time>
      </trkpt>
      <trkpt lat="43.63496" lon="5.43306">
        <ele>468</ele>
        <time>2016-09-28T12:17:59Z</time>
      </trkpt>
      <trkpt lat="43.63504" lon="5.43302">
        <ele>470</ele>
        <time>2016-09-28T12:18:07Z</time>
      </trkpt>
      <trkpt lat="43.63511" lon="5.43295">
        <ele>470</ele>
        <time>2016-09-28T12:18:14Z</time>
      </trkpt>
      <trkpt lat="43.63517" lon="5.43287">
        <ele>469</ele>
        <time>2016-09-28T12:18:21Z</time>
      </trkpt>
      <trkpt lat="43.63525" lon="5.43282">
        <ele>471</ele>
        <time>2016-09-28T12:18:29Z</time>
      </trkpt>
      <trkpt lat="43.63531" lon="5.43274">
        <ele>468</ele>
        <time>2016-09-28T12:18:36Z</time>
      </trkpt>
      <trkpt lat="43.63538" lon="5.43267">
        <ele>467</ele>
        <time>2016-09-28T12:18:45Z</time>
      </trkpt>
      <trkpt lat="43.63545" lon="5.4326">
        <ele>464</ele>
        <time>2016-09-28T12:18:52Z</time>
      </trkpt>
      <trkpt lat="43.6355" lon="5.43251">
        <ele>463</ele>
        <time>2016-09-28T12:19:00Z</time>
      </trkpt>
      <trkpt lat="43.63556" lon="5.43243">
        <ele>462</ele>
        <time>2016-09-28T12:19:08Z</time>
      </trkpt>
      <trkpt lat="43.63562" lon="5.43236">
        <ele>462</ele>
        <time>2016-09-28T12:19:15Z</time>
      </trkpt>
      <trkpt lat="43.6357" lon="5.4323">
        <ele>464</ele>
        <time>2016-09-28T12:19:23Z</time>
      </trkpt>
      <trkpt lat="43.63576" lon="5.43223">
        <ele>464</ele>
        <time>2016-09-28T12:19:31Z</time>
      </trkpt>
      <trkpt lat="43.63584" lon="5.43217">
        <ele>465</ele>
        <time>2016-09-28T12:19:39Z</time>
      </trkpt>
      <trkpt lat="43.63592" lon="5.43213">
        <ele>468</ele>
        <time>2016-09-28T12:19:49Z</time>
      </trkpt>
      <trkpt lat="43.63601" lon="5.4321">
        <ele>469</ele>
        <time>2016-09-28T12:19:58Z</time>
      </trkpt>
      <trkpt lat="43.63608" lon="5.43204">
        <ele>467</ele>
        <time>2016-09-28T12:20:07Z</time>
      </trkpt>
      <trkpt lat="43.63614" lon="5.43199">
        <ele>466</ele>
        <time>2016-09-28T12:20:14Z</time>
      </trkpt>
      <trkpt lat="43.63622" lon="5.43195">
        <ele>464</ele>
        <time>2016-09-28T12:20:25Z</time>
      </trkpt>
      <trkpt lat="43.63631" lon="5.43192">
        <ele>461</ele>
        <time>2016-09-28T12:20:33Z</time>
      </trkpt>
      <trkpt lat="43.63638" lon="5.43188">
        <ele>459</ele>
        <time>2016-09-28T12:20:42Z</time>
      </trkpt>
      <trkpt lat="43.63646" lon="5.43187">
        <ele>458</ele>
        <time>2016-09-28T12:20:49Z</time>
      </trkpt>
      <trkpt lat="43.63655" lon="5.43185">
        <ele>457</ele>
        <time>2016-09-28T12:20:57Z</time>
      </trkpt>
      <trkpt lat="43.63662" lon="5.43183">
        <ele>457</ele>
        <time>2016-09-28T12:21:04Z</time>
      </trkpt>
      <trkpt lat="43.63671" lon="5.4318">
        <ele>458</ele>
        <time>2016-09-28T12:21:11Z</time>
      </trkpt>
      <trkpt lat="43.63679" lon="5.43179">
        <ele>459</ele>
        <time>2016-09-28T12:21:18Z</time>
      </trkpt>
      <trkpt lat="43.63687" lon="5.43173">
        <ele>458</ele>
        <time>2016-09-28T12:21:26Z</time>
      </trkpt>
      <trkpt lat="43.63694" lon="5.43173">
        <ele>456</ele>
        <time>2016-09-28T12:21:32Z</time>
      </trkpt>
      <trkpt lat="43.63703" lon="5.43172">
        <ele>455</ele>
        <time>2016-09-28T12:21:39Z</time>
      </trkpt>
      <trkpt lat="43.63712" lon="5.43174">
        <ele>453</ele>
        <time>2016-09-28T12:21:48Z</time>
      </trkpt>
      <trkpt lat="43.63721" lon="5.43175">
        <ele>452</ele>
        <time>2016-09-28T12:21:56Z</time>
      </trkpt>
      <trkpt lat="43.63729" lon="5.43176">
        <ele>452</ele>
        <time>2016-09-28T12:22:06Z</time>
      </trkpt>
      <trkpt lat="43.63738" lon="5.43176">
        <ele>452</ele>
        <time>2016-09-28T12:22:15Z</time>
      </trkpt>
      <trkpt lat="43.63746" lon="5.43178">
        <ele>449</ele>
        <time>2016-09-28T12:22:28Z</time>
      </trkpt>
      <trkpt lat="43.63754" lon="5.43182">
        <ele>448</ele>
        <time>2016-09-28T12:22:38Z</time>
      </trkpt>
      <trkpt lat="43.63761" lon="5.43187">
        <ele>448</ele>
        <time>2016-09-28T12:22:49Z</time>
      </trkpt>
      <trkpt lat="43.6377" lon="5.43188">
        <ele>448</ele>
        <time>2016-09-28T12:22:58Z</time>
      </trkpt>
      <trkpt lat="43.63779" lon="5.4319">
        <ele>446</ele>
        <time>2016-09-28T12:23:09Z</time>
      </trkpt>
      <trkpt lat="43.63787" lon="5.4319">
        <ele>446</ele>
        <time>2016-09-28T12:23:18Z</time>
      </trkpt>
      <trkpt lat="43.63795" lon="5.43192">
        <ele>447</ele>
        <time>2016-09-28T12:23:28Z</time>
      </trkpt>
      <trkpt lat="43.63804" lon="5.43195">
        <ele>448</ele>
        <time>2016-09-28T12:23:40Z</time>
      </trkpt>
      <trkpt lat="43.63813" lon="5.43198">
        <ele>446</ele>
        <time>2016-09-28T12:23:48Z</time>
      </trkpt>
      <trkpt lat="43.63821" lon="5.43198">
        <ele>444</ele>
        <time>2016-09-28T12:23:57Z</time>
      </trkpt>
      <trkpt lat="43.6383" lon="5.43198">
        <ele>443</ele>
        <time>2016-09-28T12:24:05Z</time>
      </trkpt>
      <trkpt lat="43.63838" lon="5.43199">
        <ele>441</ele>
        <time>2016-09-28T12:24:14Z</time>
      </trkpt>
      <trkpt lat="43.63846" lon="5.432">
        <ele>440</ele>
        <time>2016-09-28T12:24:21Z</time>
      </trkpt>
      <trkpt lat="43.63855" lon="5.43203">
        <ele>441</ele>
        <time>2016-09-28T12:24:28Z</time>
      </trkpt>
      <trkpt lat="43.63863" lon="5.43205">
        <ele>441</ele>
        <time>2016-09-28T12:24:34Z</time>
      </trkpt>
      <trkpt lat="43.63871" lon="5.43207">
        <ele>444</ele>
        <time>2016-09-28T12:24:43Z</time>
      </trkpt>
      <trkpt lat="43.63879" lon="5.43207">
        <ele>441</ele>
        <time>2016-09-28T12:24:51Z</time>
      </trkpt>
      <trkpt lat="43.63887" lon="5.43211">
        <ele>442</ele>
        <time>2016-09-28T12:25:01Z</time>
      </trkpt>
      <trkpt lat="43.63896" lon="5.43212">
        <ele>442</ele>
        <time>2016-09-28T12:25:10Z</time>
      </trkpt>
      <trkpt lat="43.63903" lon="5.43214">
        <ele>442</ele>
        <time>2016-09-28T12:25:16Z</time>
      </trkpt>
      <trkpt lat="43.63912" lon="5.43216">
        <ele>442</ele>
        <time>2016-09-28T12:25:23Z</time>
      </trkpt>
      <trkpt lat="43.63919" lon="5.43218">
        <ele>443</ele>
        <time>2016-09-28T12:25:30Z</time>
      </trkpt>
      <trkpt lat="43.63928" lon="5.4322">
        <ele>444</ele>
        <time>2016-09-28T12:25:39Z</time>
      </trkpt>
      <trkpt lat="43.63937" lon="5.43221">
        <ele>443</ele>
        <time>2016-09-28T12:25:49Z</time>
      </trkpt>
      <trkpt lat="43.63944" lon="5.43224">
        <ele>441</ele>
        <time>2016-09-28T12:25:55Z</time>
      </trkpt>
      <trkpt lat="43.63953" lon="5.43226">
        <ele>440</ele>
        <time>2016-09-28T12:26:02Z</time>
      </trkpt>
      <trkpt lat="43.63961" lon="5.43229">
        <ele>441</ele>
        <time>2016-09-28T12:26:10Z</time>
      </trkpt>
      <trkpt lat="43.63969" lon="5.43229">
        <ele>439</ele>
        <time>2016-09-28T12:26:19Z</time>
      </trkpt>
      <trkpt lat="43.63977" lon="5.43233">
        <ele>439</ele>
        <time>2016-09-28T12:26:27Z</time>
      </trkpt>
      <trkpt lat="43.63985" lon="5.43235">
        <ele>440</ele>
        <time>2016-09-28T12:26:35Z</time>
      </trkpt>
      <trkpt lat="43.63994" lon="5.43236">
        <ele>440</ele>
        <time>2016-09-28T12:26:43Z</time>
      </trkpt>
      <trkpt lat="43.64003" lon="5.43237">
        <ele>440</ele>
        <time>2016-09-28T12:26:51Z</time>
      </trkpt>
      <trkpt lat="43.6401" lon="5.43238">
        <ele>440</ele>
        <time>2016-09-28T12:26:59Z</time>
      </trkpt>
      <trkpt lat="43.64018" lon="5.43235">
        <ele>439</ele>
        <time>2016-09-28T12:27:08Z</time>
      </trkpt>
      <trkpt lat="43.64027" lon="5.43237">
        <ele>437</ele>
        <time>2016-09-28T12:27:17Z</time>
      </trkpt>
      <trkpt lat="43.64036" lon="5.4324">
        <ele>438</ele>
        <time>2016-09-28T12:27:23Z</time>
      </trkpt>
      <trkpt lat="43.64044" lon="5.43242">
        <ele>438</ele>
        <time>2016-09-28T12:27:29Z</time>
      </trkpt>
      <trkpt lat="43.64052" lon="5.43245">
        <ele>439</ele>
        <time>2016-09-28T12:27:38Z</time>
      </trkpt>
      <trkpt lat="43.6406" lon="5.43249">
        <ele>440</ele>
        <time>2016-09-28T12:27:45Z</time>
      </trkpt>
      <trkpt lat="43.64069" lon="5.4325">
        <ele>441</ele>
        <time>2016-09-28T12:27:52Z</time>
      </trkpt>
      <trkpt lat="43.64077" lon="5.43253">
        <ele>440</ele>
        <time>2016-09-28T12:27:58Z</time>
      </trkpt>
      <trkpt lat="43.64085" lon="5.43257">
        <ele>439</ele>
        <time>2016-09-28T12:28:06Z</time>
      </trkpt>
      <trkpt lat="43.64093" lon="5.4326">
        <ele>436</ele>
        <time>2016-09-28T12:28:13Z</time>
      </trkpt>
      <trkpt lat="43.641" lon="5.43263">
        <ele>435</ele>
        <time>2016-09-28T12:28:21Z</time>
      </trkpt>
      <trkpt lat="43.64108" lon="5.43266">
        <ele>436</ele>
        <time>2016-09-28T12:28:28Z</time>
      </trkpt>
      <trkpt lat="43.64116" lon="5.43269">
        <ele>435</ele>
        <time>2016-09-28T12:28:36Z</time>
      </trkpt>
      <trkpt lat="43.64123" lon="5.43275">
        <ele>435</ele>
        <time>2016-09-28T12:28:44Z</time>
      </trkpt>
      <trkpt lat="43.64131" lon="5.43279">
        <ele>433</ele>
        <time>2016-09-28T12:28:51Z</time>
      </trkpt>
      <trkpt lat="43.6414" lon="5.43282">
        <ele>433</ele>
        <time>2016-09-28T12:28:59Z</time>
      </trkpt>
      <trkpt lat="43.64148" lon="5.43284">
        <ele>432</ele>
        <time>2016-09-28T12:29:07Z</time>
      </trkpt>
      <trkpt lat="43.64157" lon="5.43286">
        <ele>431</ele>
        <time>2016-09-28T12:29:14Z</time>
      </trkpt>
      <trkpt lat="43.64164" lon="5.43286">
        <ele>432</ele>
        <time>2016-09-28T12:29:22Z</time>
      </trkpt>
      <trkpt lat="43.64171" lon="5.43288">
        <ele>432</ele>
        <time>2016-09-28T12:29:28Z</time>
      </trkpt>
      <trkpt lat="43.6418" lon="5.43288">
        <ele>435</ele>
        <time>2016-09-28T12:29:37Z</time>
      </trkpt>
      <trkpt lat="43.64188" lon="5.43288">
        <ele>435</ele>
        <time>2016-09-28T12:29:42Z</time>
      </trkpt>
      <trkpt lat="43.64196" lon="5.43288">
        <ele>435</ele>
        <time>2016-09-28T12:29:48Z</time>
      </trkpt>
      <trkpt lat="43.64204" lon="5.43287">
        <ele>434</ele>
        <time>2016-09-28T12:29:54Z</time>
      </trkpt>
      <trkpt lat="43.64212" lon="5.43289">
        <ele>434</ele>
        <time>2016-09-28T12:30:01Z</time>
      </trkpt>
      <trkpt lat="43.6422" lon="5.43293">
        <ele>434</ele>
        <time>2016-09-28T12:30:09Z</time>
      </trkpt>
      <trkpt lat="43.64226" lon="5.433">
        <ele>434</ele>
        <time>2016-09-28T12:30:17Z</time>
      </trkpt>
      <trkpt lat="43.64232" lon="5.43307">
        <ele>433</ele>
        <time>2016-09-28T12:30:26Z</time>
      </trkpt>
      <trkpt lat="43.64238" lon="5.43317">
        <ele>434</ele>
        <time>2016-09-28T12:30:34Z</time>
      </trkpt>
      <trkpt lat="43.64244" lon="5.43324">
        <ele>436</ele>
        <time>2016-09-28T12:30:46Z</time>
      </trkpt>
      <trkpt lat="43.6425" lon="5.43331">
        <ele>438</ele>
        <time>2016-09-28T12:30:55Z</time>
      </trkpt>
      <trkpt lat="43.64257" lon="5.43337">
        <ele>438</ele>
        <time>2016-09-28T12:31:03Z</time>
      </trkpt>
      <trkpt lat="43.64266" lon="5.4334">
        <ele>436</ele>
        <time>2016-09-28T12:31:12Z</time>
      </trkpt>
      <trkpt lat="43.64274" lon="5.43342">
        <ele>438</ele>
        <time>2016-09-28T12:31:20Z</time>
      </trkpt>
      <trkpt lat="43.64283" lon="5.43343">
        <ele>438</ele>
        <time>2016-09-28T12:31:29Z</time>
      </trkpt>
      <trkpt lat="43.6429" lon="5.43339">
        <ele>436</ele>
        <time>2016-09-28T12:31:37Z</time>
      </trkpt>
      <trkpt lat="43.64299" lon="5.43337">
        <ele>435</ele>
        <time>2016-09-28T12:31:46Z</time>
      </trkpt>
      <trkpt lat="43.64307" lon="5.43336">
        <ele>436</ele>
        <time>2016-09-28T12:31:53Z</time>
      </trkpt>
      <trkpt lat="43.64314" lon="5.43337">
        <ele>435</ele>
        <time>2016-09-28T12:32:00Z</time>
      </trkpt>
      <trkpt lat="43.64323" lon="5.43336">
        <ele>436</ele>
        <time>2016-09-28T12:32:08Z</time>
      </trkpt>
      <trkpt lat="43.64331" lon="5.43331">
        <ele>436</ele>
        <time>2016-09-28T12:32:18Z</time>
      </trkpt>
      <trkpt lat="43.64339" lon="5.43329">
        <ele>437</ele>
        <time>2016-09-28T12:32:28Z</time>
      </trkpt>
      <trkpt lat="43.64347" lon="5.43323">
        <ele>438</ele>
        <time>2016-09-28T12:32:38Z</time>
      </trkpt>
      <trkpt lat="43.64349" lon="5.4332">
        <ele>435</ele>
        <time>2016-09-28T12:33:48Z</time>
      </trkpt>
      <trkpt lat="43.64349" lon="5.4332">
        <ele>435</ele>
        <time>2016-09-28T12:33:49Z</time>
      </trkpt>
    </trkseg>
  </trk>
</gpx>